PWSweather.com
Personal Weather Stations
Station Observations
BPRISK1
The Meadows, Remington, VA

The MeadowsRemington, VA

Lat: 38.5341263, Lon: -77.791069

Elevation: 295

Station Type: Davis Vantage Pro 2

http://www.riskva.com

High Low Average
Temperature 38.7°F3.7°C 33.0°F0.6°C 34.8°F1.6°C
Dew Point 35.0°F1.7°C 27.1°F-2.7°C 33.1°F0.6°C
Winds 7.0 mph 11.3 kmh Calm Calm 1.0 mph ESE1.6 kmh ESE
Wind Gusts 9.0 mph14.5 kmh -- 1.0 mph1.6 kmh
Humidity 99% 63% 94%
Pressure 30.28 in1025.4 mb 30.10 in1019.3 mb -
Precipitation 0.00 in0.0 mm - -
Hour Temp Dew Point Humidity Winds Wind Gusts Pressure Precip Precip Rate Daily Precip Total
12:00 AM 39.4°F4.1°C 26.3°F-3.2°C 59% Calm Calm 2.0 mph3.2 kmh 30.21 in1023.0 mb 0.00 in0.0 mm 0.00 in0.0 mm 0.00 in0.0 mm
12:04 AM 39.3°F4.1°C 26.2°F-3.2°C 59% Calm Calm 4.0 mph6.4 kmh 30.21 in1023.0 mb 0.00 in0.0 mm 0.00 in0.0 mm 0.00 in0.0 mm
12:05 AM 39.3°F4.1°C 26.2°F-3.2°C 59% Calm Calm -- 30.22 in1023.4 mb 0.00 in0.0 mm 0.00 in0.0 mm 0.00 in0.0 mm
12:09 AM 39.3°F4.1°C 26.2°F-3.2°C 59% Calm Calm 2.0 mph3.2 kmh 30.22 in1023.4 mb 0.00 in0.0 mm 0.00 in0.0 mm 0.00 in0.0 mm
12:10 AM 39.2°F4.0°C 26.1°F-3.3°C 59% 7.0 mph E11.3 kmh E 7.0 mph11.3 kmh 30.22 in1023.4 mb 0.00 in0.0 mm 0.00 in0.0 mm 0.00 in0.0 mm
12:14 AM 39.2°F4.0°C 26.1°F-3.3°C 59% Calm Calm -- 30.22 in1023.4 mb 0.00 in0.0 mm 0.00 in0.0 mm 0.00 in0.0 mm
12:15 AM 39.2°F4.0°C 26.1°F-3.3°C 59% Calm Calm -- 30.22 in1023.4 mb 0.00 in0.0 mm 0.00 in0.0 mm 0.00 in0.0 mm
12:19 AM 39.1°F3.9°C 26.0°F-3.3°C 59% Calm Calm -- 30.21 in1023.0 mb 0.00 in0.0 mm 0.00 in0.0 mm 0.00 in0.0 mm
12:20 AM 39.1°F3.9°C 26.4°F-3.1°C 60% Calm Calm -- 30.20 in1022.7 mb 0.00 in0.0 mm 0.00 in0.0 mm 0.00 in0.0 mm
12:24 AM 39.1°F3.9°C 26.4°F-3.1°C 60% Calm Calm -- 30.21 in1023.0 mb 0.00 in0.0 mm 0.00 in0.0 mm 0.00 in0.0 mm
12:25 AM 39.1°F3.9°C 26.4°F-3.1°C 60% Calm Calm -- 30.21 in1023.0 mb 0.00 in0.0 mm 0.00 in0.0 mm 0.00 in0.0 mm
12:29 AM 39.0°F3.9°C 26.3°F-3.2°C 60% Calm Calm -- 30.20 in1022.7 mb 0.00 in0.0 mm 0.00 in0.0 mm 0.00 in0.0 mm
12:30 AM 39.0°F3.9°C 26.3°F-3.2°C 60% Calm Calm -- 30.20 in1022.7 mb 0.00 in0.0 mm 0.00 in0.0 mm 0.00 in0.0 mm
12:34 AM 38.9°F3.8°C 26.2°F-3.2°C 60% Calm Calm 2.0 mph3.2 kmh 30.20 in1022.7 mb 0.00 in0.0 mm 0.00 in0.0 mm 0.00 in0.0 mm
12:35 AM 38.9°F3.8°C 26.2°F-3.2°C 60% Calm Calm -- 30.20 in1022.7 mb 0.00 in0.0 mm 0.00 in0.0 mm 0.00 in0.0 mm
12:39 AM 38.9°F3.8°C 26.6°F-3.0°C 61% Calm Calm -- 30.20 in1022.7 mb 0.00 in0.0 mm 0.00 in0.0 mm 0.00 in0.0 mm
12:40 AM 38.8°F3.8°C 26.5°F-3.1°C 61% Calm Calm -- 30.20 in1022.7 mb 0.00 in0.0 mm 0.00 in0.0 mm 0.00 in0.0 mm
12:44 AM 38.8°F3.8°C 26.5°F-3.1°C 61% Calm Calm 4.0 mph6.4 kmh 30.20 in1022.7 mb 0.00 in0.0 mm 0.00 in0.0 mm 0.00 in0.0 mm
12:45 AM 38.8°F3.8°C 26.5°F-3.1°C 61% Calm Calm -- 30.20 in1022.7 mb 0.00 in0.0 mm 0.00 in0.0 mm 0.00 in0.0 mm
12:49 AM 38.8°F3.8°C 26.5°F-3.1°C 61% 4.0 mph SE6.4 kmh SE 6.0 mph9.7 kmh 30.20 in1022.7 mb 0.00 in0.0 mm 0.00 in0.0 mm 0.00 in0.0 mm
12:50 AM 38.7°F3.7°C 26.4°F-3.1°C 61% Calm Calm 6.0 mph9.7 kmh 30.20 in1022.7 mb 0.00 in0.0 mm 0.00 in0.0 mm 0.00 in0.0 mm
12:54 AM 38.7°F3.7°C 26.8°F-2.9°C 62% Calm Calm -- 30.19 in1022.4 mb 0.00 in0.0 mm 0.00 in0.0 mm 0.00 in0.0 mm
12:55 AM 38.7°F3.7°C 26.8°F-2.9°C 62% Calm Calm -- 30.19 in1022.4 mb 0.00 in0.0 mm 0.00 in0.0 mm 0.00 in0.0 mm
12:59 AM 38.7°F3.7°C 27.2°F-2.7°C 63% Calm Calm -- 30.19 in1022.4 mb 0.00 in0.0 mm 0.00 in0.0 mm 0.00 in0.0 mm
01:00 AM 38.7°F3.7°C 27.2°F-2.7°C 63% Calm Calm -- 30.19 in1022.4 mb 0.00 in0.0 mm 0.00 in0.0 mm 0.00 in0.0 mm
01:04 AM 38.6°F3.7°C 27.1°F-2.7°C 63% Calm Calm -- 30.19 in1022.4 mb 0.00 in0.0 mm 0.00 in0.0 mm 0.00 in0.0 mm
01:05 AM 38.6°F3.7°C 27.1°F-2.7°C 63% Calm Calm -- 30.19 in1022.4 mb 0.00 in0.0 mm 0.00 in0.0 mm 0.00 in0.0 mm
01:09 AM 38.6°F3.7°C 27.1°F-2.7°C 63% Calm Calm 4.0 mph6.4 kmh 30.19 in1022.4 mb 0.00 in0.0 mm 0.00 in0.0 mm 0.00 in0.0 mm
01:10 AM 38.5°F3.6°C 27.4°F-2.6°C 64% Calm Calm 1.0 mph1.6 kmh 30.19 in1022.4 mb 0.00 in0.0 mm 0.00 in0.0 mm 0.00 in0.0 mm
01:14 AM 38.5°F3.6°C 27.4°F-2.6°C 64% Calm Calm 2.0 mph3.2 kmh 30.19 in1022.4 mb 0.00 in0.0 mm 0.00 in0.0 mm 0.00 in0.0 mm
01:15 AM 38.5°F3.6°C 27.4°F-2.6°C 64% Calm Calm 2.0 mph3.2 kmh 30.20 in1022.7 mb 0.00 in0.0 mm 0.00 in0.0 mm 0.00 in0.0 mm
01:19 AM 38.4°F3.6°C 27.7°F-2.4°C 65% Calm Calm -- 30.21 in1023.0 mb 0.00 in0.0 mm 0.00 in0.0 mm 0.00 in0.0 mm
01:20 AM 38.4°F3.6°C 27.7°F-2.4°C 65% Calm Calm -- 30.21 in1023.0 mb 0.00 in0.0 mm 0.00 in0.0 mm 0.00 in0.0 mm
01:24 AM 38.4°F3.6°C 27.7°F-2.4°C 65% Calm Calm -- 30.21 in1023.0 mb 0.00 in0.0 mm 0.00 in0.0 mm 0.00 in0.0 mm
01:25 AM 38.4°F3.6°C 27.7°F-2.4°C 65% Calm Calm -- 30.21 in1023.0 mb 0.00 in0.0 mm 0.00 in0.0 mm 0.00 in0.0 mm
01:29 AM 38.4°F3.6°C 28.1°F-2.2°C 66% Calm Calm -- 30.21 in1023.0 mb 0.00 in0.0 mm 0.00 in0.0 mm 0.00 in0.0 mm
01:30 AM 38.4°F3.6°C 28.1°F-2.2°C 66% Calm Calm -- 30.21 in1023.0 mb 0.00 in0.0 mm 0.00 in0.0 mm 0.00 in0.0 mm
01:34 AM 38.3°F3.5°C 28.0°F-2.2°C 66% Calm Calm -- 30.20 in1022.7 mb 0.00 in0.0 mm 0.00 in0.0 mm 0.00 in0.0 mm
01:35 AM 38.3°F3.5°C 28.3°F-2.1°C 67% Calm Calm -- 30.20 in1022.7 mb 0.00 in0.0 mm 0.00 in0.0 mm 0.00 in0.0 mm
01:39 AM 38.2°F3.4°C 28.2°F-2.1°C 67% Calm Calm -- 30.20 in1022.7 mb 0.00 in0.0 mm 0.00 in0.0 mm 0.00 in0.0 mm
01:40 AM 38.2°F3.4°C 28.2°F-2.1°C 67% Calm Calm -- 30.20 in1022.7 mb 0.00 in0.0 mm 0.00 in0.0 mm 0.00 in0.0 mm
01:44 AM 38.2°F3.4°C 28.6°F-1.9°C 68% Calm Calm -- 30.21 in1023.0 mb 0.00 in0.0 mm 0.00 in0.0 mm 0.00 in0.0 mm
01:45 AM 38.2°F3.4°C 28.6°F-1.9°C 68% Calm Calm -- 30.21 in1023.0 mb 0.00 in0.0 mm 0.00 in0.0 mm 0.00 in0.0 mm
01:49 AM 38.1°F3.4°C 28.8°F-1.8°C 69% Calm Calm -- 30.21 in1023.0 mb 0.00 in0.0 mm 0.00 in0.0 mm 0.00 in0.0 mm
01:50 AM 38.1°F3.4°C 28.8°F-1.8°C 69% Calm Calm -- 30.21 in1023.0 mb 0.00 in0.0 mm 0.00 in0.0 mm 0.00 in0.0 mm
01:54 AM 38.1°F3.4°C 29.2°F-1.6°C 70% Calm Calm -- 30.21 in1023.0 mb 0.00 in0.0 mm 0.00 in0.0 mm 0.00 in0.0 mm
01:55 AM 38.0°F3.3°C 29.1°F-1.6°C 70% Calm Calm -- 30.21 in1023.0 mb 0.00 in0.0 mm 0.00 in0.0 mm 0.00 in0.0 mm
01:59 AM 38.0°F3.3°C 29.8°F-1.2°C 72% Calm Calm -- 30.20 in1022.7 mb 0.00 in0.0 mm 0.00 in0.0 mm 0.00 in0.0 mm
02:00 AM 37.9°F3.3°C 30.0°F-1.1°C 73% Calm Calm -- 30.20 in1022.7 mb 0.00 in0.0 mm 0.00 in0.0 mm 0.00 in0.0 mm
02:04 AM 37.7°F3.2°C 30.5°F-0.8°C 75% Calm Calm -- 30.20 in1022.7 mb 0.00 in0.0 mm 0.00 in0.0 mm 0.00 in0.0 mm
02:05 AM 37.7°F3.2°C 30.2°F-1.0°C 74% Calm Calm -- 30.20 in1022.7 mb 0.00 in0.0 mm 0.00 in0.0 mm 0.00 in0.0 mm
02:09 AM 37.6°F3.1°C 30.1°F-1.1°C 74% Calm Calm -- 30.21 in1023.0 mb 0.00 in0.0 mm 0.00 in0.0 mm 0.00 in0.0 mm
02:10 AM 37.6°F3.1°C 30.1°F-1.1°C 74% Calm Calm -- 30.21 in1023.0 mb 0.00 in0.0 mm 0.00 in0.0 mm 0.00 in0.0 mm
02:14 AM 37.5°F3.1°C 30.0°F-1.1°C 74% Calm Calm -- 30.21 in1023.0 mb 0.00 in0.0 mm 0.00 in0.0 mm 0.00 in0.0 mm
02:15 AM 37.4°F3.0°C 29.9°F-1.2°C 74% Calm Calm -- 30.21 in1023.0 mb 0.00 in0.0 mm 0.00 in0.0 mm 0.00 in0.0 mm
02:19 AM 37.4°F3.0°C 30.2°F-1.0°C 75% Calm Calm -- 30.21 in1023.0 mb 0.00 in0.0 mm 0.00 in0.0 mm 0.00 in0.0 mm
02:20 AM 37.3°F2.9°C 30.1°F-1.1°C 75% Calm Calm -- 30.21 in1023.0 mb 0.00 in0.0 mm 0.00 in0.0 mm 0.00 in0.0 mm
02:24 AM 37.3°F2.9°C 30.4°F-0.9°C 76% Calm Calm -- 30.21 in1023.0 mb 0.00 in0.0 mm 0.00 in0.0 mm 0.00 in0.0 mm
02:25 AM 37.2°F2.9°C 30.4°F-0.9°C 76% Calm Calm -- 30.21 in1023.0 mb 0.00 in0.0 mm 0.00 in0.0 mm 0.00 in0.0 mm
02:29 AM 37.2°F2.9°C 30.4°F-0.9°C 76% Calm Calm -- 30.21 in1023.0 mb 0.00 in0.0 mm 0.00 in0.0 mm 0.00 in0.0 mm
02:30 AM 37.2°F2.9°C 30.4°F-0.9°C 76% Calm Calm -- 30.21 in1023.0 mb 0.00 in0.0 mm 0.00 in0.0 mm 0.00 in0.0 mm
02:34 AM 37.1°F2.8°C 30.6°F-0.8°C 77% Calm Calm -- 30.21 in1023.0 mb 0.00 in0.0 mm 0.00 in0.0 mm 0.00 in0.0 mm
02:35 AM 37.1°F2.8°C 30.6°F-0.8°C 77% Calm Calm -- 30.21 in1023.0 mb 0.00 in0.0 mm 0.00 in0.0 mm 0.00 in0.0 mm
02:39 AM 37.1°F2.8°C 30.6°F-0.8°C 77% Calm Calm -- 30.21 in1023.0 mb 0.00 in0.0 mm 0.00 in0.0 mm 0.00 in0.0 mm
02:40 AM 37.1°F2.8°C 30.6°F-0.8°C 77% Calm Calm -- 30.21 in1023.0 mb 0.00 in0.0 mm 0.00 in0.0 mm 0.00 in0.0 mm
02:44 AM 37.0°F2.8°C 30.5°F-0.8°C 77% Calm Calm -- 30.22 in1023.4 mb 0.00 in0.0 mm 0.00 in0.0 mm 0.00 in0.0 mm
02:45 AM 37.0°F2.8°C 30.5°F-0.8°C 77% Calm Calm -- 30.21 in1023.0 mb 0.00 in0.0 mm 0.00 in0.0 mm 0.00 in0.0 mm
02:49 AM 37.0°F2.8°C 30.5°F-0.8°C 77% Calm Calm -- 30.21 in1023.0 mb 0.00 in0.0 mm 0.00 in0.0 mm 0.00 in0.0 mm
02:50 AM 37.0°F2.8°C 30.5°F-0.8°C 77% Calm Calm -- 30.21 in1023.0 mb 0.00 in0.0 mm 0.00 in0.0 mm 0.00 in0.0 mm
02:54 AM 36.9°F2.7°C 31.0°F-0.6°C 79% Calm Calm -- 30.20 in1022.7 mb 0.00 in0.0 mm 0.00 in0.0 mm 0.00 in0.0 mm
02:55 AM 36.9°F2.7°C 31.0°F-0.6°C 79% Calm Calm -- 30.21 in1023.0 mb 0.00 in0.0 mm 0.00 in0.0 mm 0.00 in0.0 mm
02:59 AM 36.9°F2.7°C 31.0°F-0.6°C 79% Calm Calm -- 30.21 in1023.0 mb 0.00 in0.0 mm 0.00 in0.0 mm 0.00 in0.0 mm
03:00 AM 36.9°F2.7°C 31.0°F-0.6°C 79% Calm Calm -- 30.21 in1023.0 mb 0.00 in0.0 mm 0.00 in0.0 mm 0.00 in0.0 mm
03:04 AM 36.8°F2.7°C 30.6°F-0.8°C 78% Calm Calm -- 30.20 in1022.7 mb 0.00 in0.0 mm 0.00 in0.0 mm 0.00 in0.0 mm
03:05 AM 36.8°F2.7°C 30.9°F-0.6°C 79% Calm Calm -- 30.20 in1022.7 mb 0.00 in0.0 mm 0.00 in0.0 mm 0.00 in0.0 mm
03:09 AM 36.8°F2.7°C 30.6°F-0.8°C 78% Calm Calm -- 30.20 in1022.7 mb 0.00 in0.0 mm 0.00 in0.0 mm 0.00 in0.0 mm
03:10 AM 36.8°F2.7°C 30.9°F-0.6°C 79% Calm Calm -- 30.20 in1022.7 mb 0.00 in0.0 mm 0.00 in0.0 mm 0.00 in0.0 mm
03:14 AM 36.7°F2.6°C 30.5°F-0.8°C 78% Calm Calm -- 30.20 in1022.7 mb 0.00 in0.0 mm 0.00 in0.0 mm 0.00 in0.0 mm
03:15 AM 36.7°F2.6°C 30.5°F-0.8°C 78% Calm Calm -- 30.20 in1022.7 mb 0.00 in0.0 mm 0.00 in0.0 mm 0.00 in0.0 mm
03:19 AM 36.6°F2.6°C 30.4°F-0.9°C 78% Calm Calm -- 30.19 in1022.4 mb 0.00 in0.0 mm 0.00 in0.0 mm 0.00 in0.0 mm
03:20 AM 36.6°F2.6°C 30.7°F-0.7°C 79% Calm Calm -- 30.19 in1022.4 mb 0.00 in0.0 mm 0.00 in0.0 mm 0.00 in0.0 mm
03:24 AM 36.6°F2.6°C 30.7°F-0.7°C 79% Calm Calm -- 30.19 in1022.4 mb 0.00 in0.0 mm 0.00 in0.0 mm 0.00 in0.0 mm
03:25 AM 36.6°F2.6°C 30.7°F-0.7°C 79% Calm Calm -- 30.19 in1022.4 mb 0.00 in0.0 mm 0.00 in0.0 mm 0.00 in0.0 mm
03:29 AM 36.6°F2.6°C 30.7°F-0.7°C 79% Calm Calm -- 30.19 in1022.4 mb 0.00 in0.0 mm 0.00 in0.0 mm 0.00 in0.0 mm
03:30 AM 36.5°F2.5°C 30.6°F-0.8°C 79% Calm Calm -- 30.20 in1022.7 mb 0.00 in0.0 mm 0.00 in0.0 mm 0.00 in0.0 mm
03:35 AM 36.5°F2.5°C 30.9°F-0.6°C 80% Calm Calm -- 30.20 in1022.7 mb 0.00 in0.0 mm 0.00 in0.0 mm 0.00 in0.0 mm
03:40 AM 36.5°F2.5°C 30.9°F-0.6°C 80% Calm Calm -- 30.20 in1022.7 mb 0.00 in0.0 mm 0.00 in0.0 mm 0.00 in0.0 mm
03:44 AM 36.5°F2.5°C 31.2°F-0.4°C 81% Calm Calm -- 30.20 in1022.7 mb 0.00 in0.0 mm 0.00 in0.0 mm 0.00 in0.0 mm
03:45 AM 36.5°F2.5°C 31.2°F-0.4°C 81% Calm Calm -- 30.20 in1022.7 mb 0.00 in0.0 mm 0.00 in0.0 mm 0.00 in0.0 mm
03:49 AM 36.4°F2.4°C 31.4°F-0.3°C 82% Calm Calm -- 30.20 in1022.7 mb 0.00 in0.0 mm 0.00 in0.0 mm 0.00 in0.0 mm
03:50 AM 36.4°F2.4°C 31.4°F-0.3°C 82% Calm Calm -- 30.20 in1022.7 mb 0.00 in0.0 mm 0.00 in0.0 mm 0.00 in0.0 mm
03:54 AM 36.4°F2.4°C 31.7°F-0.2°C 83% Calm Calm -- 30.20 in1022.7 mb 0.00 in0.0 mm 0.00 in0.0 mm 0.00 in0.0 mm
03:55 AM 36.4°F2.4°C 32.0°F0.0°C 84% Calm Calm -- 30.20 in1022.7 mb 0.00 in0.0 mm 0.00 in0.0 mm 0.00 in0.0 mm
03:59 AM 36.3°F2.4°C 31.9°F-0.1°C 84% Calm Calm -- 30.20 in1022.7 mb 0.00 in0.0 mm 0.00 in0.0 mm 0.00 in0.0 mm
04:00 AM 36.3°F2.4°C 31.9°F-0.1°C 84% Calm Calm -- 30.20 in1022.7 mb 0.00 in0.0 mm 0.00 in0.0 mm 0.00 in0.0 mm
04:04 AM 36.2°F2.3°C 32.1°F0.1°C 85% Calm Calm -- 30.19 in1022.4 mb 0.00 in0.0 mm 0.00 in0.0 mm 0.00 in0.0 mm
04:05 AM 36.1°F2.3°C 32.3°F0.2°C 86% Calm Calm -- 30.19 in1022.4 mb 0.00 in0.0 mm 0.00 in0.0 mm 0.00 in0.0 mm
04:09 AM 36.0°F2.2°C 32.2°F0.1°C 86% Calm Calm -- 30.19 in1022.4 mb 0.00 in0.0 mm 0.00 in0.0 mm 0.00 in0.0 mm
04:10 AM 35.9°F2.2°C 32.4°F0.2°C 87% Calm Calm -- 30.19 in1022.4 mb 0.00 in0.0 mm 0.00 in0.0 mm 0.00 in0.0 mm
04:14 AM 35.8°F2.1°C 32.3°F0.2°C 87% Calm Calm -- 30.19 in1022.4 mb 0.00 in0.0 mm 0.00 in0.0 mm 0.00 in0.0 mm
04:15 AM 35.8°F2.1°C 32.6°F0.3°C 88% Calm Calm -- 30.19 in1022.4 mb 0.00 in0.0 mm 0.00 in0.0 mm 0.00 in0.0 mm
04:19 AM 35.7°F2.1°C 32.8°F0.4°C 89% Calm Calm -- 30.19 in1022.4 mb 0.01 in0.3 mm 0.15 in3.8 mm 0.01 in0.3 mm
04:20 AM 35.7°F2.1°C 32.8°F0.4°C 89% Calm Calm -- 30.19 in1022.4 mb 0.01 in0.3 mm 0.00 in0.0 mm 0.01 in0.3 mm
04:24 AM 35.5°F1.9°C 32.6°F0.3°C 89% Calm Calm -- 30.20 in1022.7 mb 0.01 in0.3 mm 0.00 in0.0 mm 0.01 in0.3 mm
04:25 AM 35.5°F1.9°C 32.6°F0.3°C 89% Calm Calm -- 30.20 in1022.7 mb 0.01 in0.3 mm 0.00 in0.0 mm 0.01 in0.3 mm
04:29 AM 35.4°F1.9°C 32.8°F0.4°C 90% Calm Calm -- 30.21 in1023.0 mb 0.01 in0.3 mm 0.00 in0.0 mm 0.01 in0.3 mm
04:30 AM 35.3°F1.8°C 32.7°F0.4°C 90% Calm Calm -- 30.21 in1023.0 mb 0.01 in0.3 mm 0.00 in0.0 mm 0.01 in0.3 mm
04:34 AM 35.2°F1.8°C 32.6°F0.3°C 90% Calm Calm -- 30.21 in1023.0 mb 0.01 in0.3 mm 0.00 in0.0 mm 0.01 in0.3 mm
04:35 AM 35.2°F1.8°C 32.6°F0.3°C 90% Calm Calm -- 30.21 in1023.0 mb 0.01 in0.3 mm 0.00 in0.0 mm 0.01 in0.3 mm
04:39 AM 35.1°F1.7°C 32.7°F0.4°C 91% Calm Calm -- 30.21 in1023.0 mb 0.01 in0.3 mm 0.00 in0.0 mm 0.01 in0.3 mm
04:40 AM 35.0°F1.7°C 32.6°F0.3°C 91% Calm Calm -- 30.21 in1023.0 mb 0.01 in0.3 mm 0.00 in0.0 mm 0.01 in0.3 mm
04:44 AM 34.9°F1.6°C 32.5°F0.3°C 91% Calm Calm -- 30.21 in1023.0 mb 0.01 in0.3 mm 0.00 in0.0 mm 0.01 in0.3 mm
04:45 AM 34.8°F1.6°C 32.7°F0.4°C 92% Calm Calm -- 30.21 in1023.0 mb 0.01 in0.3 mm 0.00 in0.0 mm 0.01 in0.3 mm
04:49 AM 34.8°F1.6°C 32.7°F0.4°C 92% Calm Calm -- 30.21 in1023.0 mb 0.01 in0.3 mm 0.00 in0.0 mm 0.01 in0.3 mm
04:50 AM 34.7°F1.5°C 32.6°F0.3°C 92% Calm Calm -- 30.21 in1023.0 mb 0.01 in0.3 mm 0.00 in0.0 mm 0.01 in0.3 mm
04:54 AM 34.6°F1.4°C 32.8°F0.4°C 93% Calm Calm -- 30.21 in1023.0 mb 0.01 in0.3 mm 0.00 in0.0 mm 0.01 in0.3 mm
04:55 AM 34.6°F1.4°C 32.8°F0.4°C 93% Calm Calm -- 30.22 in1023.4 mb 0.01 in0.3 mm 0.00 in0.0 mm 0.01 in0.3 mm
04:59 AM 34.4°F1.3°C 32.6°F0.3°C 93% Calm Calm -- 30.21 in1023.0 mb 0.01 in0.3 mm 0.00 in0.0 mm 0.01 in0.3 mm
05:00 AM 34.3°F1.3°C 32.5°F0.3°C 93% Calm Calm -- 30.20 in1022.7 mb 0.01 in0.3 mm 0.00 in0.0 mm 0.01 in0.3 mm
05:04 AM 34.2°F1.2°C 32.7°F0.4°C 94% Calm Calm -- 30.19 in1022.4 mb 0.01 in0.3 mm 0.00 in0.0 mm 0.01 in0.3 mm
05:05 AM 34.1°F1.2°C 32.6°F0.3°C 94% Calm Calm -- 30.19 in1022.4 mb 0.01 in0.3 mm 0.00 in0.0 mm 0.01 in0.3 mm
05:09 AM 34.0°F1.1°C 32.5°F0.3°C 94% Calm Calm -- 30.21 in1023.0 mb 0.01 in0.3 mm 0.00 in0.0 mm 0.01 in0.3 mm
05:10 AM 33.9°F1.1°C 32.6°F0.3°C 95% Calm Calm -- 30.21 in1023.0 mb 0.01 in0.3 mm 0.00 in0.0 mm 0.01 in0.3 mm
05:14 AM 33.9°F1.1°C 32.6°F0.3°C 95% Calm Calm -- 30.21 in1023.0 mb 0.02 in0.5 mm 0.15 in3.8 mm 0.02 in0.5 mm
05:15 AM 33.8°F1.0°C 32.5°F0.3°C 95% Calm Calm -- 30.21 in1023.0 mb 0.02 in0.5 mm 0.00 in0.0 mm 0.02 in0.5 mm
05:19 AM 33.7°F0.9°C 32.4°F0.2°C 95% Calm Calm -- 30.21 in1023.0 mb 0.02 in0.5 mm 0.00 in0.0 mm 0.02 in0.5 mm
05:20 AM 33.7°F0.9°C 32.4°F0.2°C 95% Calm Calm -- 30.21 in1023.0 mb 0.01 in0.3 mm 0.00 in0.0 mm 0.02 in0.5 mm
05:24 AM 33.6°F0.9°C 32.3°F0.2°C 95% Calm Calm -- 30.21 in1023.0 mb 0.01 in0.3 mm 0.00 in0.0 mm 0.02 in0.5 mm
05:25 AM 33.6°F0.9°C 32.6°F0.3°C 96% Calm Calm -- 30.22 in1023.4 mb 0.01 in0.3 mm 0.00 in0.0 mm 0.02 in0.5 mm
05:29 AM 33.5°F0.8°C 32.5°F0.3°C 96% Calm Calm -- 30.22 in1023.4 mb 0.01 in0.3 mm 0.00 in0.0 mm 0.02 in0.5 mm
05:30 AM 33.4°F0.8°C 32.4°F0.2°C 96% Calm Calm -- 30.22 in1023.4 mb 0.01 in0.3 mm 0.00 in0.0 mm 0.02 in0.5 mm
05:34 AM 33.4°F0.8°C 32.4°F0.2°C 96% Calm Calm -- 30.21 in1023.0 mb 0.01 in0.3 mm 0.00 in0.0 mm 0.02 in0.5 mm
05:35 AM 33.4°F0.8°C 32.4°F0.2°C 96% Calm Calm -- 30.21 in1023.0 mb 0.01 in0.3 mm 0.00 in0.0 mm 0.02 in0.5 mm
05:39 AM 33.4°F0.8°C 32.4°F0.2°C 96% Calm Calm -- 30.21 in1023.0 mb 0.01 in0.3 mm 0.00 in0.0 mm 0.02 in0.5 mm
05:40 AM 33.4°F0.8°C 32.4°F0.2°C 96% Calm Calm -- 30.21 in1023.0 mb 0.01 in0.3 mm 0.00 in0.0 mm 0.02 in0.5 mm
05:44 AM 33.3°F0.7°C 32.3°F0.2°C 96% Calm Calm -- 30.21 in1023.0 mb 0.01 in0.3 mm 0.00 in0.0 mm 0.02 in0.5 mm
05:45 AM 33.3°F0.7°C 32.5°F0.3°C 97% Calm Calm -- 30.21 in1023.0 mb 0.01 in0.3 mm 0.00 in0.0 mm 0.02 in0.5 mm
05:49 AM 33.3°F0.7°C 32.5°F0.3°C 97% Calm Calm -- 30.21 in1023.0 mb 0.01 in0.3 mm 0.00 in0.0 mm 0.02 in0.5 mm
05:50 AM 33.3°F0.7°C 32.5°F0.3°C 97% Calm Calm -- 30.21 in1023.0 mb 0.01 in0.3 mm 0.00 in0.0 mm 0.02 in0.5 mm
05:54 AM 33.2°F0.7°C 32.4°F0.2°C 97% Calm Calm -- 30.22 in1023.4 mb 0.01 in0.3 mm 0.00 in0.0 mm 0.02 in0.5 mm
05:55 AM 33.2°F0.7°C 32.4°F0.2°C 97% Calm Calm -- 30.21 in1023.0 mb 0.01 in0.3 mm 0.00 in0.0 mm 0.02 in0.5 mm
05:59 AM 33.2°F0.7°C 32.4°F0.2°C 97% Calm Calm -- 30.21 in1023.0 mb 0.01 in0.3 mm 0.00 in0.0 mm 0.02 in0.5 mm
06:00 AM 33.2°F0.7°C 32.4°F0.2°C 97% Calm Calm -- 30.21 in1023.0 mb 0.01 in0.3 mm 0.00 in0.0 mm 0.02 in0.5 mm
06:04 AM 33.2°F0.7°C 32.4°F0.2°C 97% Calm Calm -- 30.22 in1023.4 mb 0.01 in0.3 mm 0.00 in0.0 mm 0.02 in0.5 mm
06:05 AM 33.1°F0.6°C 32.3°F0.2°C 97% Calm Calm -- 30.22 in1023.4 mb 0.01 in0.3 mm 0.00 in0.0 mm 0.02 in0.5 mm
06:09 AM 33.1°F0.6°C 32.3°F0.2°C 97% Calm Calm -- 30.22 in1023.4 mb 0.01 in0.3 mm 0.00 in0.0 mm 0.02 in0.5 mm
06:10 AM 33.1°F0.6°C 32.3°F0.2°C 97% Calm Calm -- 30.22 in1023.4 mb 0.01 in0.3 mm 0.00 in0.0 mm 0.02 in0.5 mm
06:14 AM 33.1°F0.6°C 32.3°F0.2°C 97% Calm Calm -- 30.22 in1023.4 mb 0.01 in0.3 mm 0.00 in0.0 mm 0.02 in0.5 mm
06:15 AM 33.0°F0.6°C 32.2°F0.1°C 97% Calm Calm -- 30.22 in1023.4 mb 0.01 in0.3 mm 0.00 in0.0 mm 0.02 in0.5 mm
06:19 AM 33.0°F0.6°C 32.2°F0.1°C 97% Calm Calm -- 30.22 in1023.4 mb 0.01 in0.3 mm 0.00 in0.0 mm 0.02 in0.5 mm
06:20 AM 33.0°F0.6°C 32.2°F0.1°C 97% Calm Calm -- 30.22 in1023.4 mb 0.00 in0.0 mm 0.00 in0.0 mm 0.02 in0.5 mm
06:24 AM 33.0°F0.6°C 32.5°F0.3°C 98% Calm Calm -- 30.22 in1023.4 mb 0.00 in0.0 mm 0.00 in0.0 mm 0.02 in0.5 mm
06:25 AM 33.0°F0.6°C 32.5°F0.3°C 98% Calm Calm -- 30.22 in1023.4 mb 0.00 in0.0 mm 0.00 in0.0 mm 0.02 in0.5 mm
06:29 AM 33.1°F0.6°C 32.6°F0.3°C 98% Calm Calm -- 30.22 in1023.4 mb 0.00 in0.0 mm 0.00 in0.0 mm 0.02 in0.5 mm
06:30 AM 33.0°F0.6°C 32.5°F0.3°C 98% Calm Calm -- 30.22 in1023.4 mb 0.00 in0.0 mm 0.00 in0.0 mm 0.02 in0.5 mm
06:34 AM 33.0°F0.6°C 32.2°F0.1°C 97% Calm Calm -- 30.22 in1023.4 mb 0.00 in0.0 mm 0.00 in0.0 mm 0.02 in0.5 mm
06:35 AM 33.0°F0.6°C 32.2°F0.1°C 97% Calm Calm -- 30.22 in1023.4 mb 0.00 in0.0 mm 0.00 in0.0 mm 0.02 in0.5 mm
06:39 AM 33.0°F0.6°C 32.5°F0.3°C 98% Calm Calm -- 30.22 in1023.4 mb 0.00 in0.0 mm 0.00 in0.0 mm 0.02 in0.5 mm
06:40 AM 33.0°F0.6°C 32.5°F0.3°C 98% Calm Calm -- 30.22 in1023.4 mb 0.00 in0.0 mm 0.00 in0.0 mm 0.02 in0.5 mm
06:44 AM 33.0°F0.6°C 32.5°F0.3°C 98% Calm Calm -- 30.22 in1023.4 mb 0.00 in0.0 mm 0.00 in0.0 mm 0.02 in0.5 mm
06:45 AM 33.0°F0.6°C 32.5°F0.3°C 98% Calm Calm -- 30.22 in1023.4 mb 0.00 in0.0 mm 0.00 in0.0 mm 0.02 in0.5 mm
06:49 AM 33.1°F0.6°C 32.6°F0.3°C 98% Calm Calm -- 30.22 in1023.4 mb 0.00 in0.0 mm 0.00 in0.0 mm 0.02 in0.5 mm
06:50 AM 33.1°F0.6°C 32.6°F0.3°C 98% Calm Calm -- 30.22 in1023.4 mb 0.00 in0.0 mm 0.00 in0.0 mm 0.02 in0.5 mm
06:54 AM 33.1°F0.6°C 32.6°F0.3°C 98% Calm Calm -- 30.22 in1023.4 mb 0.00 in0.0 mm 0.00 in0.0 mm 0.02 in0.5 mm
06:55 AM 33.1°F0.6°C 32.6°F0.3°C 98% Calm Calm -- 30.22 in1023.4 mb 0.00 in0.0 mm 0.00 in0.0 mm 0.02 in0.5 mm
06:59 AM 33.1°F0.6°C 32.6°F0.3°C 98% Calm Calm -- 30.21 in1023.0 mb 0.00 in0.0 mm 0.00 in0.0 mm 0.02 in0.5 mm
07:00 AM 33.1°F0.6°C 32.6°F0.3°C 98% Calm Calm -- 30.21 in1023.0 mb 0.00 in0.0 mm 0.00 in0.0 mm 0.02 in0.5 mm
07:04 AM 33.1°F0.6°C 32.6°F0.3°C 98% Calm Calm -- 30.21 in1023.0 mb 0.00 in0.0 mm 0.00 in0.0 mm 0.02 in0.5 mm
07:05 AM 33.1°F0.6°C 32.6°F0.3°C 98% Calm Calm -- 30.21 in1023.0 mb 0.00 in0.0 mm 0.00 in0.0 mm 0.02 in0.5 mm
07:09 AM 33.1°F0.6°C 32.6°F0.3°C 98% Calm Calm -- 30.22 in1023.4 mb 0.00 in0.0 mm 0.00 in0.0 mm 0.02 in0.5 mm
07:10 AM 33.1°F0.6°C 32.6°F0.3°C 98% Calm Calm -- 30.22 in1023.4 mb 0.00 in0.0 mm 0.00 in0.0 mm 0.02 in0.5 mm
07:14 AM 33.1°F0.6°C 32.6°F0.3°C 98% Calm Calm -- 30.22 in1023.4 mb 0.00 in0.0 mm 0.00 in0.0 mm 0.02 in0.5 mm
07:15 AM 33.1°F0.6°C 32.6°F0.3°C 98% Calm Calm -- 30.22 in1023.4 mb 0.00 in0.0 mm 0.00 in0.0 mm 0.02 in0.5 mm
07:19 AM 33.2°F0.7°C 32.7°F0.4°C 98% Calm Calm -- 30.22 in1023.4 mb 0.00 in0.0 mm 0.00 in0.0 mm 0.02 in0.5 mm
07:20 AM 33.2°F0.7°C 32.7°F0.4°C 98% Calm Calm -- 30.22 in1023.4 mb 0.00 in0.0 mm 0.00 in0.0 mm 0.02 in0.5 mm
07:24 AM 33.2°F0.7°C 32.7°F0.4°C 98% Calm Calm -- 30.23 in1023.7 mb 0.00 in0.0 mm 0.00 in0.0 mm 0.02 in0.5 mm
07:25 AM 33.2°F0.7°C 32.7°F0.4°C 98% Calm Calm -- 30.23 in1023.7 mb 0.00 in0.0 mm 0.00 in0.0 mm 0.02 in0.5 mm
07:29 AM 33.2°F0.7°C 32.7°F0.4°C 98% Calm Calm -- 30.23 in1023.7 mb 0.00 in0.0 mm 0.00 in0.0 mm 0.02 in0.5 mm
07:30 AM 33.2°F0.7°C 32.7°F0.4°C 98% Calm Calm -- 30.23 in1023.7 mb 0.00 in0.0 mm 0.00 in0.0 mm 0.02 in0.5 mm
07:34 AM 33.2°F0.7°C 32.7°F0.4°C 98% Calm Calm -- 30.23 in1023.7 mb 0.01 in0.3 mm 0.15 in3.8 mm 0.03 in0.8 mm
07:35 AM 33.2°F0.7°C 32.7°F0.4°C 98% Calm Calm -- 30.23 in1023.7 mb 0.01 in0.3 mm 0.00 in0.0 mm 0.03 in0.8 mm
07:39 AM 33.2°F0.7°C 32.7°F0.4°C 98% Calm Calm -- 30.22 in1023.4 mb 0.01 in0.3 mm 0.00 in0.0 mm 0.03 in0.8 mm
07:40 AM 33.2°F0.7°C 32.7°F0.4°C 98% Calm Calm -- 30.22 in1023.4 mb 0.01 in0.3 mm 0.00 in0.0 mm 0.03 in0.8 mm
07:44 AM 33.2°F0.7°C 32.7°F0.4°C 98% Calm Calm -- 30.22 in1023.4 mb 0.01 in0.3 mm 0.00 in0.0 mm 0.03 in0.8 mm
07:45 AM 33.2°F0.7°C 32.7°F0.4°C 98% Calm Calm -- 30.22 in1023.4 mb 0.01 in0.3 mm 0.00 in0.0 mm 0.03 in0.8 mm
07:49 AM 33.2°F0.7°C 32.7°F0.4°C 98% Calm Calm -- 30.22 in1023.4 mb 0.01 in0.3 mm 0.00 in0.0 mm 0.03 in0.8 mm
07:50 AM 33.2°F0.7°C 32.7°F0.4°C 98% Calm Calm -- 30.22 in1023.4 mb 0.01 in0.3 mm 0.00 in0.0 mm 0.03 in0.8 mm
07:54 AM 33.2°F0.7°C 32.7°F0.4°C 98% Calm Calm -- 30.23 in1023.7 mb 0.01 in0.3 mm 0.00 in0.0 mm 0.03 in0.8 mm
07:55 AM 33.2°F0.7°C 32.7°F0.4°C 98% Calm Calm -- 30.23 in1023.7 mb 0.01 in0.3 mm 0.00 in0.0 mm 0.03 in0.8 mm
07:59 AM 33.3°F0.7°C 32.8°F0.4°C 98% Calm Calm -- 30.23 in1023.7 mb 0.01 in0.3 mm 0.00 in0.0 mm 0.03 in0.8 mm
08:00 AM 33.3°F0.7°C 32.8°F0.4°C 98% Calm Calm -- 30.23 in1023.7 mb 0.01 in0.3 mm 0.00 in0.0 mm 0.03 in0.8 mm
08:04 AM 33.3°F0.7°C 32.8°F0.4°C 98% Calm Calm -- 30.23 in1023.7 mb 0.01 in0.3 mm 0.00 in0.0 mm 0.03 in0.8 mm
08:05 AM 33.3°F0.7°C 32.8°F0.4°C 98% Calm Calm -- 30.23 in1023.7 mb 0.01 in0.3 mm 0.00 in0.0 mm 0.03 in0.8 mm
08:09 AM 33.3°F0.7°C 32.8°F0.4°C 98% Calm Calm -- 30.23 in1023.7 mb 0.01 in0.3 mm 0.00 in0.0 mm 0.03 in0.8 mm
08:10 AM 33.3°F0.7°C 32.8°F0.4°C 98% Calm Calm -- 30.23 in1023.7 mb 0.01 in0.3 mm 0.00 in0.0 mm 0.03 in0.8 mm
08:14 AM 33.3°F0.7°C 32.8°F0.4°C 98% Calm Calm -- 30.23 in1023.7 mb 0.01 in0.3 mm 0.00 in0.0 mm 0.03 in0.8 mm
08:15 AM 33.3°F0.7°C 32.8°F0.4°C 98% Calm Calm -- 30.23 in1023.7 mb 0.01 in0.3 mm 0.00 in0.0 mm 0.03 in0.8 mm
08:19 AM 33.3°F0.7°C 32.8°F0.4°C 98% Calm Calm -- 30.23 in1023.7 mb 0.01 in0.3 mm 0.00 in0.0 mm 0.03 in0.8 mm
08:20 AM 33.3°F0.7°C 32.8°F0.4°C 98% Calm Calm -- 30.23 in1023.7 mb 0.01 in0.3 mm 0.00 in0.0 mm 0.03 in0.8 mm
08:24 AM 33.3°F0.7°C 32.8°F0.4°C 98% Calm Calm -- 30.23 in1023.7 mb 0.01 in0.3 mm 0.00 in0.0 mm 0.03 in0.8 mm
08:25 AM 33.3°F0.7°C 32.8°F0.4°C 98% Calm Calm -- 30.23 in1023.7 mb 0.01 in0.3 mm 0.00 in0.0 mm 0.03 in0.8 mm
08:29 AM 33.3°F0.7°C 32.8°F0.4°C 98% Calm Calm -- 30.23 in1023.7 mb 0.01 in0.3 mm 0.00 in0.0 mm 0.03 in0.8 mm
08:30 AM 33.3°F0.7°C 32.8°F0.4°C 98% Calm Calm -- 30.23 in1023.7 mb 0.01 in0.3 mm 0.00 in0.0 mm 0.03 in0.8 mm
08:34 AM 33.3°F0.7°C 32.8°F0.4°C 98% Calm Calm -- 30.23 in1023.7 mb 0.01 in0.3 mm 0.00 in0.0 mm 0.03 in0.8 mm
08:35 AM 33.3°F0.7°C 32.8°F0.4°C 98% Calm Calm -- 30.24 in1024.0 mb 0.01 in0.3 mm 0.00 in0.0 mm 0.03 in0.8 mm
08:39 AM 33.3°F0.7°C 32.8°F0.4°C 98% Calm Calm -- 30.24 in1024.0 mb 0.01 in0.3 mm 0.00 in0.0 mm 0.03 in0.8 mm
08:40 AM 33.3°F0.7°C 32.8°F0.4°C 98% Calm Calm -- 30.24 in1024.0 mb 0.00 in0.0 mm 0.00 in0.0 mm 0.03 in0.8 mm
08:44 AM 33.3°F0.7°C 32.8°F0.4°C 98% Calm Calm -- 30.24 in1024.0 mb 0.00 in0.0 mm 0.00 in0.0 mm 0.03 in0.8 mm
08:45 AM 33.4°F0.8°C 32.9°F0.5°C 98% Calm Calm -- 30.24 in1024.0 mb 0.00 in0.0 mm 0.00 in0.0 mm 0.03 in0.8 mm
08:49 AM 33.4°F0.8°C 32.9°F0.5°C 98% Calm Calm -- 30.24 in1024.0 mb 0.00 in0.0 mm 0.00 in0.0 mm 0.03 in0.8 mm
08:50 AM 33.4°F0.8°C 32.9°F0.5°C 98% Calm Calm -- 30.24 in1024.0 mb 0.00 in0.0 mm 0.00 in0.0 mm 0.03 in0.8 mm
08:54 AM 33.4°F0.8°C 32.9°F0.5°C 98% Calm Calm -- 30.24 in1024.0 mb 0.00 in0.0 mm 0.00 in0.0 mm 0.03 in0.8 mm
08:55 AM 33.4°F0.8°C 32.9°F0.5°C 98% Calm Calm -- 30.24 in1024.0 mb 0.00 in0.0 mm 0.00 in0.0 mm 0.03 in0.8 mm
08:59 AM 33.4°F0.8°C 32.9°F0.5°C 98% Calm Calm -- 30.24 in1024.0 mb 0.00 in0.0 mm 0.00 in0.0 mm 0.03 in0.8 mm
09:00 AM 33.4°F0.8°C 32.9°F0.5°C 98% Calm Calm -- 30.24 in1024.0 mb 0.00 in0.0 mm 0.00 in0.0 mm 0.03 in0.8 mm
09:04 AM 33.4°F0.8°C 32.9°F0.5°C 98% Calm Calm 2.0 mph3.2 kmh 30.25 in1024.4 mb 0.00 in0.0 mm 0.00 in0.0 mm 0.03 in0.8 mm
09:05 AM 33.4°F0.8°C 32.9°F0.5°C 98% 2.0 mph ENE3.2 kmh ENE 2.0 mph3.2 kmh 30.25 in1024.4 mb 0.00 in0.0 mm 0.00 in0.0 mm 0.03 in0.8 mm
09:09 AM 33.4°F0.8°C 32.9°F0.5°C 98% 1.0 mph ENE1.6 kmh ENE 1.0 mph1.6 kmh 30.26 in1024.7 mb 0.00 in0.0 mm 0.00 in0.0 mm 0.03 in0.8 mm
09:10 AM 33.4°F0.8°C 32.9°F0.5°C 98% Calm Calm 2.0 mph3.2 kmh 30.26 in1024.7 mb 0.00 in0.0 mm 0.00 in0.0 mm 0.03 in0.8 mm
09:14 AM 33.4°F0.8°C 32.9°F0.5°C 98% Calm Calm -- 30.26 in1024.7 mb 0.00 in0.0 mm 0.00 in0.0 mm 0.03 in0.8 mm
09:15 AM 33.4°F0.8°C 32.9°F0.5°C 98% Calm Calm -- 30.26 in1024.7 mb 0.00 in0.0 mm 0.00 in0.0 mm 0.03 in0.8 mm
09:19 AM 33.4°F0.8°C 32.9°F0.5°C 98% Calm Calm -- 30.27 in1025.1 mb 0.00 in0.0 mm 0.00 in0.0 mm 0.03 in0.8 mm
09:20 AM 33.5°F0.8°C 33.0°F0.6°C 98% 1.0 mph ENE1.6 kmh ENE 2.0 mph3.2 kmh 30.27 in1025.1 mb 0.00 in0.0 mm 0.00 in0.0 mm 0.03 in0.8 mm
09:24 AM 33.5°F0.8°C 33.0°F0.6°C 98% Calm Calm -- 30.27 in1025.1 mb 0.00 in0.0 mm 0.00 in0.0 mm 0.03 in0.8 mm
09:25 AM 33.5°F0.8°C 33.0°F0.6°C 98% Calm Calm -- 30.27 in1025.1 mb 0.00 in0.0 mm 0.00 in0.0 mm 0.03 in0.8 mm
09:29 AM 33.5°F0.8°C 33.0°F0.6°C 98% Calm Calm 1.0 mph1.6 kmh 30.26 in1024.7 mb 0.00 in0.0 mm 0.00 in0.0 mm 0.03 in0.8 mm
09:30 AM 33.5°F0.8°C 33.0°F0.6°C 98% Calm Calm -- 30.26 in1024.7 mb 0.00 in0.0 mm 0.00 in0.0 mm 0.03 in0.8 mm
09:34 AM 33.5°F0.8°C 33.0°F0.6°C 98% Calm Calm 2.0 mph3.2 kmh 30.26 in1024.7 mb 0.00 in0.0 mm 0.00 in0.0 mm 0.03 in0.8 mm
09:35 AM 33.5°F0.8°C 33.0°F0.6°C 98% Calm Calm -- 30.26 in1024.7 mb 0.00 in0.0 mm 0.00 in0.0 mm 0.03 in0.8 mm
09:39 AM 33.5°F0.8°C 33.0°F0.6°C 98% Calm Calm -- 30.26 in1024.7 mb 0.00 in0.0 mm 0.00 in0.0 mm 0.03 in0.8 mm
09:40 AM 33.5°F0.8°C 33.0°F0.6°C 98% Calm Calm -- 30.26 in1024.7 mb 0.00 in0.0 mm 0.00 in0.0 mm 0.03 in0.8 mm
09:44 AM 33.6°F0.9°C 33.1°F0.6°C 98% Calm Calm -- 30.27 in1025.1 mb 0.00 in0.0 mm 0.00 in0.0 mm 0.03 in0.8 mm
09:45 AM 33.6°F0.9°C 33.1°F0.6°C 98% Calm Calm -- 30.26 in1024.7 mb 0.00 in0.0 mm 0.00 in0.0 mm 0.03 in0.8 mm
09:49 AM 33.6°F0.9°C 33.1°F0.6°C 98% Calm Calm 1.0 mph1.6 kmh 30.27 in1025.1 mb 0.00 in0.0 mm 0.00 in0.0 mm 0.03 in0.8 mm
09:50 AM 33.7°F0.9°C 33.2°F0.7°C 98% Calm Calm -- 30.27 in1025.1 mb 0.00 in0.0 mm 0.00 in0.0 mm 0.03 in0.8 mm
09:54 AM 33.6°F0.9°C 33.1°F0.6°C 98% Calm Calm -- 30.27 in1025.1 mb 0.00 in0.0 mm 0.00 in0.0 mm 0.03 in0.8 mm
09:55 AM 33.6°F0.9°C 33.1°F0.6°C 98% Calm Calm -- 30.27 in1025.1 mb 0.00 in0.0 mm 0.00 in0.0 mm 0.03 in0.8 mm
09:59 AM 33.6°F0.9°C 33.1°F0.6°C 98% Calm Calm -- 30.27 in1025.1 mb 0.00 in0.0 mm 0.00 in0.0 mm 0.03 in0.8 mm
10:00 AM 33.7°F0.9°C 33.2°F0.7°C 98% Calm Calm -- 30.27 in1025.1 mb 0.00 in0.0 mm 0.00 in0.0 mm 0.03 in0.8 mm
10:04 AM 33.7°F0.9°C 33.2°F0.7°C 98% Calm Calm -- 30.27 in1025.1 mb 0.00 in0.0 mm 0.00 in0.0 mm 0.03 in0.8 mm
10:05 AM 33.7°F0.9°C 33.2°F0.7°C 98% Calm Calm -- 30.27 in1025.1 mb 0.00 in0.0 mm 0.00 in0.0 mm 0.03 in0.8 mm
10:09 AM 33.7°F0.9°C 33.2°F0.7°C 98% Calm Calm -- 30.27 in1025.1 mb 0.01 in0.3 mm 0.15 in3.8 mm 0.04 in1.0 mm
10:10 AM 33.7°F0.9°C 33.2°F0.7°C 98% Calm Calm -- 30.27 in1025.1 mb 0.01 in0.3 mm 0.00 in0.0 mm 0.04 in1.0 mm
10:14 AM 33.7°F0.9°C 33.2°F0.7°C 98% Calm Calm 1.0 mph1.6 kmh 30.27 in1025.1 mb 0.01 in0.3 mm 0.00 in0.0 mm 0.04 in1.0 mm
10:15 AM 33.7°F0.9°C 33.2°F0.7°C 98% 1.0 mph ENE1.6 kmh ENE 1.0 mph1.6 kmh 30.27 in1025.1 mb 0.01 in0.3 mm 0.00 in0.0 mm 0.04 in1.0 mm
10:19 AM 33.7°F0.9°C 33.2°F0.7°C 98% Calm Calm -- 30.27 in1025.1 mb 0.01 in0.3 mm 0.00 in0.0 mm 0.04 in1.0 mm
10:20 AM 33.7°F0.9°C 33.2°F0.7°C 98% Calm Calm -- 30.27 in1025.1 mb 0.01 in0.3 mm 0.00 in0.0 mm 0.04 in1.0 mm
10:24 AM 33.7°F0.9°C 33.2°F0.7°C 98% Calm Calm -- 30.26 in1024.7 mb 0.01 in0.3 mm 0.00 in0.0 mm 0.04 in1.0 mm
10:25 AM 33.7°F0.9°C 33.2°F0.7°C 98% Calm Calm -- 30.27 in1025.1 mb 0.01 in0.3 mm 0.00 in0.0 mm 0.04 in1.0 mm
10:29 AM 33.7°F0.9°C 33.2°F0.7°C 98% Calm Calm -- 30.27 in1025.1 mb 0.01 in0.3 mm 0.00 in0.0 mm 0.04 in1.0 mm
10:30 AM 33.8°F1.0°C 33.3°F0.7°C 98% Calm Calm -- 30.27 in1025.1 mb 0.01 in0.3 mm 0.00 in0.0 mm 0.04 in1.0 mm
10:34 AM 33.8°F1.0°C 33.3°F0.7°C 98% Calm Calm -- 30.27 in1025.1 mb 0.01 in0.3 mm 0.00 in0.0 mm 0.04 in1.0 mm
10:35 AM 33.8°F1.0°C 33.3°F0.7°C 98% Calm Calm -- 30.27 in1025.1 mb 0.01 in0.3 mm 0.00 in0.0 mm 0.04 in1.0 mm
10:39 AM 33.8°F1.0°C 33.3°F0.7°C 98% Calm Calm -- 30.27 in1025.1 mb 0.01 in0.3 mm 0.00 in0.0 mm 0.04 in1.0 mm
10:40 AM 33.8°F1.0°C 33.3°F0.7°C 98% Calm Calm -- 30.27 in1025.1 mb 0.01 in0.3 mm 0.00 in0.0 mm 0.04 in1.0 mm
10:44 AM 33.8°F1.0°C 33.3°F0.7°C 98% Calm Calm -- 30.27 in1025.1 mb 0.01 in0.3 mm 0.00 in0.0 mm 0.04 in1.0 mm
10:45 AM 33.8°F1.0°C 33.3°F0.7°C 98% Calm Calm -- 30.27 in1025.1 mb 0.01 in0.3 mm 0.00 in0.0 mm 0.04 in1.0 mm
10:49 AM 33.9°F1.1°C 33.4°F0.8°C 98% Calm Calm -- 30.27 in1025.1 mb 0.01 in0.3 mm 0.00 in0.0 mm 0.04 in1.0 mm
10:50 AM 33.9°F1.1°C 33.4°F0.8°C 98% Calm Calm -- 30.26 in1024.7 mb 0.01 in0.3 mm 0.00 in0.0 mm 0.04 in1.0 mm
10:54 AM 33.9°F1.1°C 33.4°F0.8°C 98% Calm Calm -- 30.27 in1025.1 mb 0.01 in0.3 mm 0.00 in0.0 mm 0.04 in1.0 mm
10:55 AM 33.9°F1.1°C 33.4°F0.8°C 98% Calm Calm -- 30.26 in1024.7 mb 0.01 in0.3 mm 0.00 in0.0 mm 0.04 in1.0 mm
10:59 AM 34.0°F1.1°C 33.5°F0.8°C 98% Calm Calm -- 30.27 in1025.1 mb 0.01 in0.3 mm 0.00 in0.0 mm 0.04 in1.0 mm
11:00 AM 34.0°F1.1°C 33.5°F0.8°C 98% Calm Calm -- 30.27 in1025.1 mb 0.01 in0.3 mm 0.00 in0.0 mm 0.04 in1.0 mm
11:04 AM 34.0°F1.1°C 33.5°F0.8°C 98% Calm Calm -- 30.26 in1024.7 mb 0.01 in0.3 mm 0.00 in0.0 mm 0.04 in1.0 mm
11:05 AM 34.1°F1.2°C 33.6°F0.9°C 98% Calm Calm -- 30.26 in1024.7 mb 0.01 in0.3 mm 0.00 in0.0 mm 0.04 in1.0 mm
11:09 AM 34.1°F1.2°C 33.6°F0.9°C 98% Calm Calm -- 30.26 in1024.7 mb 0.01 in0.3 mm 0.00 in0.0 mm 0.04 in1.0 mm
11:10 AM 34.1°F1.2°C 33.6°F0.9°C 98% Calm Calm -- 30.26 in1024.7 mb 0.00 in0.0 mm 0.00 in0.0 mm 0.04 in1.0 mm
11:14 AM 34.1°F1.2°C 33.9°F1.1°C 99% Calm Calm -- 30.25 in1024.4 mb 0.01 in0.3 mm 0.15 in3.8 mm 0.05 in1.3 mm
11:15 AM 34.2°F1.2°C 34.0°F1.1°C 99% Calm Calm -- 30.25 in1024.4 mb 0.01 in0.3 mm 0.00 in0.0 mm 0.05 in1.3 mm
11:19 AM 34.2°F1.2°C 34.0°F1.1°C 99% Calm Calm 3.0 mph4.8 kmh 30.26 in1024.7 mb 0.01 in0.3 mm 0.00 in0.0 mm 0.05 in1.3 mm
11:20 AM 34.2°F1.2°C 34.0°F1.1°C 99% Calm Calm 2.0 mph3.2 kmh 30.26 in1024.7 mb 0.01 in0.3 mm 0.00 in0.0 mm 0.05 in1.3 mm
11:24 AM 34.2°F1.2°C 33.7°F0.9°C 98% 1.0 mph NE1.6 kmh NE 3.0 mph4.8 kmh 30.27 in1025.1 mb 0.01 in0.3 mm 0.00 in0.0 mm 0.05 in1.3 mm
11:25 AM 34.2°F1.2°C 33.7°F0.9°C 98% Calm Calm 7.0 mph11.3 kmh 30.27 in1025.1 mb 0.01 in0.3 mm 0.00 in0.0 mm 0.05 in1.3 mm
11:29 AM 34.2°F1.2°C 33.7°F0.9°C 98% Calm Calm -- 30.27 in1025.1 mb 0.01 in0.3 mm 0.00 in0.0 mm 0.05 in1.3 mm
11:30 AM 34.1°F1.2°C 33.6°F0.9°C 98% Calm Calm -- 30.27 in1025.1 mb 0.01 in0.3 mm 0.00 in0.0 mm 0.05 in1.3 mm
11:34 AM 34.2°F1.2°C 33.7°F0.9°C 98% Calm Calm -- 30.27 in1025.1 mb 0.01 in0.3 mm 0.00 in0.0 mm 0.05 in1.3 mm
11:35 AM 34.2°F1.2°C 33.7°F0.9°C 98% Calm Calm -- 30.27 in1025.1 mb 0.01 in0.3 mm 0.00 in0.0 mm 0.05 in1.3 mm
11:39 AM 34.3°F1.3°C 33.8°F1.0°C 98% Calm Calm -- 30.27 in1025.1 mb 0.01 in0.3 mm 0.00 in0.0 mm 0.05 in1.3 mm
11:40 AM 34.3°F1.3°C 33.8°F1.0°C 98% Calm Calm 1.0 mph1.6 kmh 30.27 in1025.1 mb 0.01 in0.3 mm 0.00 in0.0 mm 0.05 in1.3 mm
11:44 AM 34.3°F1.3°C 33.8°F1.0°C 98% Calm Calm 3.0 mph4.8 kmh 30.27 in1025.1 mb 0.01 in0.3 mm 0.00 in0.0 mm 0.05 in1.3 mm
11:45 AM 34.3°F1.3°C 33.8°F1.0°C 98% Calm Calm -- 30.27 in1025.1 mb 0.01 in0.3 mm 0.00 in0.0 mm 0.05 in1.3 mm
11:49 AM 34.4°F1.3°C 33.9°F1.1°C 98% Calm Calm -- 30.27 in1025.1 mb 0.01 in0.3 mm 0.00 in0.0 mm 0.05 in1.3 mm
11:50 AM 34.4°F1.3°C 33.9°F1.1°C 98% Calm Calm -- 30.27 in1025.1 mb 0.01 in0.3 mm 0.00 in0.0 mm 0.05 in1.3 mm
11:54 AM 34.4°F1.3°C 33.9°F1.1°C 98% Calm Calm 1.0 mph1.6 kmh 30.27 in1025.1 mb 0.01 in0.3 mm 0.00 in0.0 mm 0.05 in1.3 mm
11:55 AM 34.4°F1.3°C 33.9°F1.1°C 98% Calm Calm 1.0 mph1.6 kmh 30.27 in1025.1 mb 0.01 in0.3 mm 0.00 in0.0 mm 0.05 in1.3 mm
11:59 AM 34.4°F1.3°C 33.9°F1.1°C 98% 1.0 mph NNE1.6 kmh NNE 2.0 mph3.2 kmh 30.28 in1025.4 mb 0.01 in0.3 mm 0.00 in0.0 mm 0.05 in1.3 mm
12:00 PM 34.4°F1.3°C 33.9°F1.1°C 98% Calm Calm 2.0 mph3.2 kmh 30.28 in1025.4 mb 0.01 in0.3 mm 0.00 in0.0 mm 0.05 in1.3 mm
12:04 PM 34.4°F1.3°C 33.9°F1.1°C 98% Calm Calm -- 30.27 in1025.1 mb 0.01 in0.3 mm 0.00 in0.0 mm 0.05 in1.3 mm
12:05 PM 34.4°F1.3°C 33.9°F1.1°C 98% Calm Calm -- 30.27 in1025.1 mb 0.01 in0.3 mm 0.00 in0.0 mm 0.05 in1.3 mm
12:09 PM 34.5°F1.4°C 34.0°F1.1°C 98% Calm Calm 2.0 mph3.2 kmh 30.27 in1025.1 mb 0.01 in0.3 mm 0.00 in0.0 mm 0.05 in1.3 mm
12:10 PM 34.6°F1.4°C 34.1°F1.2°C 98% Calm Calm -- 30.27 in1025.1 mb 0.01 in0.3 mm 0.00 in0.0 mm 0.05 in1.3 mm
12:14 PM 34.6°F1.4°C 34.1°F1.2°C 98% Calm Calm -- 30.27 in1025.1 mb 0.01 in0.3 mm 0.00 in0.0 mm 0.05 in1.3 mm
12:15 PM 34.6°F1.4°C 34.1°F1.2°C 98% Calm Calm -- 30.27 in1025.1 mb 0.01 in0.3 mm 0.00 in0.0 mm 0.05 in1.3 mm
12:19 PM 34.7°F1.5°C 34.2°F1.2°C 98% Calm Calm -- 30.27 in1025.1 mb 0.01 in0.3 mm 0.00 in0.0 mm 0.05 in1.3 mm
12:20 PM 34.8°F1.6°C 34.3°F1.3°C 98% Calm Calm -- 30.27 in1025.1 mb 0.00 in0.0 mm 0.00 in0.0 mm 0.05 in1.3 mm
12:24 PM 34.9°F1.6°C 34.4°F1.3°C 98% Calm Calm -- 30.27 in1025.1 mb 0.00 in0.0 mm 0.00 in0.0 mm 0.05 in1.3 mm
12:25 PM 34.9°F1.6°C 34.4°F1.3°C 98% Calm Calm -- 30.27 in1025.1 mb 0.00 in0.0 mm 0.00 in0.0 mm 0.05 in1.3 mm
12:29 PM 35.0°F1.7°C 34.5°F1.4°C 98% Calm Calm -- 30.27 in1025.1 mb 0.00 in0.0 mm 0.00 in0.0 mm 0.05 in1.3 mm
12:30 PM 34.9°F1.6°C 34.4°F1.3°C 98% Calm Calm -- 30.27 in1025.1 mb 0.00 in0.0 mm 0.00 in0.0 mm 0.05 in1.3 mm
12:34 PM 34.9°F1.6°C 34.4°F1.3°C 98% Calm Calm 1.0 mph1.6 kmh 30.27 in1025.1 mb 0.00 in0.0 mm 0.00 in0.0 mm 0.05 in1.3 mm
12:35 PM 35.0°F1.7°C 34.5°F1.4°C 98% Calm Calm -- 30.27 in1025.1 mb 0.00 in0.0 mm 0.00 in0.0 mm 0.05 in1.3 mm
12:39 PM 34.9°F1.6°C 34.4°F1.3°C 98% Calm Calm -- 30.27 in1025.1 mb 0.00 in0.0 mm 0.00 in0.0 mm 0.05 in1.3 mm
12:40 PM 34.9°F1.6°C 34.4°F1.3°C 98% Calm Calm 1.0 mph1.6 kmh 30.27 in1025.1 mb 0.00 in0.0 mm 0.00 in0.0 mm 0.05 in1.3 mm
12:44 PM 34.9°F1.6°C 34.4°F1.3°C 98% Calm Calm 3.0 mph4.8 kmh 30.26 in1024.7 mb 0.00 in0.0 mm 0.00 in0.0 mm 0.05 in1.3 mm
12:45 PM 35.0°F1.7°C 34.5°F1.4°C 98% Calm Calm -- 30.26 in1024.7 mb 0.00 in0.0 mm 0.00 in0.0 mm 0.05 in1.3 mm
12:49 PM 35.0°F1.7°C 34.5°F1.4°C 98% Calm Calm -- 30.26 in1024.7 mb 0.00 in0.0 mm 0.00 in0.0 mm 0.05 in1.3 mm
12:50 PM 35.0°F1.7°C 34.5°F1.4°C 98% 1.0 mph NNE1.6 kmh NNE 1.0 mph1.6 kmh 30.26 in1024.7 mb 0.00 in0.0 mm 0.00 in0.0 mm 0.05 in1.3 mm
12:54 PM 35.1°F1.7°C 34.6°F1.4°C 98% Calm Calm -- 30.27 in1025.1 mb 0.00 in0.0 mm 0.00 in0.0 mm 0.05 in1.3 mm
12:55 PM 35.1°F1.7°C 34.6°F1.4°C 98% Calm Calm -- 30.27 in1025.1 mb 0.00 in0.0 mm 0.00 in0.0 mm 0.05 in1.3 mm
12:59 PM 35.2°F1.8°C 34.7°F1.5°C 98% Calm Calm -- 30.26 in1024.7 mb 0.00 in0.0 mm 0.00 in0.0 mm 0.05 in1.3 mm
01:00 PM 35.2°F1.8°C 34.4°F1.3°C 97% Calm Calm -- 30.26 in1024.7 mb 0.00 in0.0 mm 0.00 in0.0 mm 0.05 in1.3 mm
01:04 PM 35.2°F1.8°C 34.4°F1.3°C 97% Calm Calm -- 30.26 in1024.7 mb 0.01 in0.3 mm 0.15 in3.8 mm 0.06 in1.5 mm
01:05 PM 35.2°F1.8°C 34.4°F1.3°C 97% Calm Calm -- 30.26 in1024.7 mb 0.01 in0.3 mm 0.00 in0.0 mm 0.06 in1.5 mm
01:09 PM 35.3°F1.8°C 34.5°F1.4°C 97% Calm Calm -- 30.26 in1024.7 mb 0.01 in0.3 mm 0.00 in0.0 mm 0.06 in1.5 mm
01:10 PM 35.3°F1.8°C 34.5°F1.4°C 97% Calm Calm -- 30.26 in1024.7 mb 0.01 in0.3 mm 0.00 in0.0 mm 0.06 in1.5 mm
01:14 PM 35.3°F1.8°C 34.5°F1.4°C 97% Calm Calm 2.0 mph3.2 kmh 30.25 in1024.4 mb 0.01 in0.3 mm 0.00 in0.0 mm 0.06 in1.5 mm
01:15 PM 35.4°F1.9°C 34.6°F1.4°C 97% 1.0 mph NNE1.6 kmh NNE 1.0 mph1.6 kmh 30.25 in1024.4 mb 0.01 in0.3 mm 0.00 in0.0 mm 0.06 in1.5 mm
01:19 PM 35.5°F1.9°C 34.7°F1.5°C 97% 2.0 mph NNE3.2 kmh NNE 2.0 mph3.2 kmh 30.25 in1024.4 mb 0.01 in0.3 mm 0.00 in0.0 mm 0.06 in1.5 mm
01:20 PM 35.5°F1.9°C 34.7°F1.5°C 97% Calm Calm 2.0 mph3.2 kmh 30.25 in1024.4 mb 0.01 in0.3 mm 0.00 in0.0 mm 0.06 in1.5 mm
01:24 PM 35.5°F1.9°C 34.7°F1.5°C 97% 2.0 mph NNE3.2 kmh NNE 2.0 mph3.2 kmh 30.25 in1024.4 mb 0.01 in0.3 mm 0.00 in0.0 mm 0.06 in1.5 mm
01:25 PM 35.5°F1.9°C 34.7°F1.5°C 97% Calm Calm 2.0 mph3.2 kmh 30.25 in1024.4 mb 0.01 in0.3 mm 0.00 in0.0 mm 0.06 in1.5 mm
01:29 PM 35.4°F1.9°C 34.6°F1.4°C 97% 1.0 mph NNE1.6 kmh NNE 2.0 mph3.2 kmh 30.25 in1024.4 mb 0.01 in0.3 mm 0.00 in0.0 mm 0.06 in1.5 mm
01:30 PM 35.5°F1.9°C 34.7°F1.5°C 97% Calm Calm 2.0 mph3.2 kmh 30.25 in1024.4 mb 0.01 in0.3 mm 0.00 in0.0 mm 0.06 in1.5 mm
01:34 PM 35.5°F1.9°C 34.5°F1.4°C 96% 1.0 mph NNE1.6 kmh NNE 2.0 mph3.2 kmh 30.25 in1024.4 mb 0.01 in0.3 mm 0.00 in0.0 mm 0.06 in1.5 mm
01:35 PM 35.5°F1.9°C 34.5°F1.4°C 96% Calm Calm 3.0 mph4.8 kmh 30.25 in1024.4 mb 0.01 in0.3 mm 0.00 in0.0 mm 0.06 in1.5 mm
01:39 PM 35.6°F2.0°C 34.6°F1.4°C 96% Calm Calm -- 30.25 in1024.4 mb 0.01 in0.3 mm 0.00 in0.0 mm 0.06 in1.5 mm
01:40 PM 35.6°F2.0°C 34.6°F1.4°C 96% Calm Calm -- 30.25 in1024.4 mb 0.01 in0.3 mm 0.00 in0.0 mm 0.06 in1.5 mm
01:44 PM 35.7°F2.1°C 34.7°F1.5°C 96% Calm Calm -- 30.25 in1024.4 mb 0.01 in0.3 mm 0.00 in0.0 mm 0.06 in1.5 mm
01:45 PM 35.7°F2.1°C 34.7°F1.5°C 96% Calm Calm -- 30.25 in1024.4 mb 0.01 in0.3 mm 0.00 in0.0 mm 0.06 in1.5 mm
01:49 PM 35.7°F2.1°C 34.7°F1.5°C 96% Calm Calm -- 30.25 in1024.4 mb 0.01 in0.3 mm 0.00 in0.0 mm 0.06 in1.5 mm
01:50 PM 35.8°F2.1°C 34.8°F1.6°C 96% Calm Calm -- 30.25 in1024.4 mb 0.01 in0.3 mm 0.00 in0.0 mm 0.06 in1.5 mm
01:54 PM 35.9°F2.2°C 34.9°F1.6°C 96% Calm Calm -- 30.25 in1024.4 mb 0.01 in0.3 mm 0.00 in0.0 mm 0.06 in1.5 mm
01:55 PM 35.9°F2.2°C 34.9°F1.6°C 96% Calm Calm -- 30.25 in1024.4 mb 0.01 in0.3 mm 0.00 in0.0 mm 0.06 in1.5 mm
01:59 PM 35.9°F2.2°C 34.9°F1.6°C 96% Calm Calm 2.0 mph3.2 kmh 30.25 in1024.4 mb 0.01 in0.3 mm 0.00 in0.0 mm 0.06 in1.5 mm
02:00 PM 35.9°F2.2°C 34.6°F1.4°C 95% Calm Calm 1.0 mph1.6 kmh 30.25 in1024.4 mb 0.01 in0.3 mm 0.00 in0.0 mm 0.06 in1.5 mm
02:04 PM 35.9°F2.2°C 34.6°F1.4°C 95% Calm Calm -- 30.25 in1024.4 mb 0.01 in0.3 mm 0.00 in0.0 mm 0.06 in1.5 mm
02:05 PM 35.9°F2.2°C 34.6°F1.4°C 95% Calm Calm -- 30.25 in1024.4 mb 0.01 in0.3 mm 0.00 in0.0 mm 0.06 in1.5 mm
02:09 PM 36.0°F2.2°C 34.7°F1.5°C 95% Calm Calm -- 30.25 in1024.4 mb 0.01 in0.3 mm 0.00 in0.0 mm 0.06 in1.5 mm
02:10 PM 36.1°F2.3°C 34.8°F1.6°C 95% Calm Calm -- 30.25 in1024.4 mb 0.00 in0.0 mm 0.00 in0.0 mm 0.06 in1.5 mm
02:14 PM 36.0°F2.2°C 34.7°F1.5°C 95% Calm Calm -- 30.24 in1024.0 mb 0.01 in0.3 mm 0.15 in3.8 mm 0.07 in1.8 mm
02:15 PM 36.0°F2.2°C 34.7°F1.5°C 95% Calm Calm -- 30.24 in1024.0 mb 0.01 in0.3 mm 0.00 in0.0 mm 0.07 in1.8 mm
02:19 PM 36.1°F2.3°C 34.8°F1.6°C 95% 2.0 mph NNE3.2 kmh NNE 2.0 mph3.2 kmh 30.25 in1024.4 mb 0.01 in0.3 mm 0.00 in0.0 mm 0.07 in1.8 mm
02:20 PM 36.0°F2.2°C 34.7°F1.5°C 95% Calm Calm 3.0 mph4.8 kmh 30.25 in1024.4 mb 0.01 in0.3 mm 0.00 in0.0 mm 0.07 in1.8 mm
02:24 PM 36.0°F2.2°C 34.7°F1.5°C 95% Calm Calm -- 30.25 in1024.4 mb 0.01 in0.3 mm 0.00 in0.0 mm 0.07 in1.8 mm
02:25 PM 36.0°F2.2°C 34.7°F1.5°C 95% Calm Calm -- 30.25 in1024.4 mb 0.01 in0.3 mm 0.00 in0.0 mm 0.07 in1.8 mm
02:29 PM 36.1°F2.3°C 34.8°F1.6°C 95% Calm Calm -- 30.24 in1024.0 mb 0.01 in0.3 mm 0.00 in0.0 mm 0.07 in1.8 mm
02:30 PM 36.1°F2.3°C 34.8°F1.6°C 95% Calm Calm -- 30.24 in1024.0 mb 0.01 in0.3 mm 0.00 in0.0 mm 0.07 in1.8 mm
02:34 PM 36.1°F2.3°C 34.8°F1.6°C 95% Calm Calm 2.0 mph3.2 kmh 30.23 in1023.7 mb 0.01 in0.3 mm 0.00 in0.0 mm 0.07 in1.8 mm
02:35 PM 36.1°F2.3°C 34.8°F1.6°C 95% 4.0 mph NNE6.4 kmh NNE 4.0 mph6.4 kmh 30.23 in1023.7 mb 0.01 in0.3 mm 0.00 in0.0 mm 0.07 in1.8 mm
02:39 PM 36.1°F2.3°C 34.8°F1.6°C 95% Calm Calm -- 30.23 in1023.7 mb 0.01 in0.3 mm 0.00 in0.0 mm 0.07 in1.8 mm
02:40 PM 36.2°F2.3°C 34.9°F1.6°C 95% Calm Calm -- 30.23 in1023.7 mb 0.01 in0.3 mm 0.00 in0.0 mm 0.07 in1.8 mm
02:44 PM 36.2°F2.3°C 34.9°F1.6°C 95% Calm Calm -- 30.24 in1024.0 mb 0.01 in0.3 mm 0.00 in0.0 mm 0.07 in1.8 mm
02:45 PM 36.2°F2.3°C 34.9°F1.6°C 95% 2.0 mph NNE3.2 kmh NNE 3.0 mph4.8 kmh 30.24 in1024.0 mb 0.01 in0.3 mm 0.00 in0.0 mm 0.07 in1.8 mm
02:49 PM 36.2°F2.3°C 34.9°F1.6°C 95% Calm Calm -- 30.23 in1023.7 mb 0.01 in0.3 mm 0.00 in0.0 mm 0.07 in1.8 mm
02:50 PM 36.2°F2.3°C 34.9°F1.6°C 95% Calm Calm -- 30.23 in1023.7 mb 0.01 in0.3 mm 0.00 in0.0 mm 0.07 in1.8 mm
02:54 PM 36.2°F2.3°C 34.9°F1.6°C 95% Calm Calm -- 30.23 in1023.7 mb 0.01 in0.3 mm 0.00 in0.0 mm 0.07 in1.8 mm
02:55 PM 36.2°F2.3°C 34.9°F1.6°C 95% Calm Calm -- 30.23 in1023.7 mb 0.01 in0.3 mm 0.00 in0.0 mm 0.07 in1.8 mm
02:59 PM 36.3°F2.4°C 35.0°F1.7°C 95% Calm Calm 3.0 mph4.8 kmh 30.22 in1023.4 mb 0.01 in0.3 mm 0.00 in0.0 mm 0.07 in1.8 mm
03:00 PM 36.3°F2.4°C 35.0°F1.7°C 95% Calm Calm 1.0 mph1.6 kmh 30.22 in1023.4 mb 0.01 in0.3 mm 0.00 in0.0 mm 0.07 in1.8 mm
03:04 PM 36.3°F2.4°C 34.7°F1.5°C 94% 2.0 mph NNE3.2 kmh NNE 2.0 mph3.2 kmh 30.22 in1023.4 mb 0.01 in0.3 mm 0.00 in0.0 mm 0.07 in1.8 mm
03:05 PM 36.2°F2.3°C 34.6°F1.4°C 94% Calm Calm 2.0 mph3.2 kmh 30.22 in1023.4 mb 0.01 in0.3 mm 0.00 in0.0 mm 0.07 in1.8 mm
03:09 PM 36.2°F2.3°C 34.6°F1.4°C 94% Calm Calm -- 30.21 in1023.0 mb 0.01 in0.3 mm 0.00 in0.0 mm 0.07 in1.8 mm
03:10 PM 36.2°F2.3°C 34.6°F1.4°C 94% 1.0 mph NNE1.6 kmh NNE 1.0 mph1.6 kmh 30.21 in1023.0 mb 0.01 in0.3 mm 0.00 in0.0 mm 0.07 in1.8 mm
03:14 PM 36.2°F2.3°C 34.6°F1.4°C 94% 2.0 mph NNE3.2 kmh NNE 2.0 mph3.2 kmh 30.21 in1023.0 mb 0.01 in0.3 mm 0.00 in0.0 mm 0.07 in1.8 mm
03:15 PM 36.3°F2.4°C 34.7°F1.5°C 94% Calm Calm 2.0 mph3.2 kmh 30.21 in1023.0 mb 0.01 in0.3 mm 0.00 in0.0 mm 0.07 in1.8 mm
03:19 PM 36.2°F2.3°C 34.6°F1.4°C 94% Calm Calm 2.0 mph3.2 kmh 30.21 in1023.0 mb 0.01 in0.3 mm 0.00 in0.0 mm 0.07 in1.8 mm
03:20 PM 36.2°F2.3°C 34.6°F1.4°C 94% Calm Calm -- 30.21 in1023.0 mb 0.00 in0.0 mm 0.00 in0.0 mm 0.07 in1.8 mm
03:24 PM 36.3°F2.4°C 34.7°F1.5°C 94% Calm Calm -- 30.21 in1023.0 mb 0.00 in0.0 mm 0.00 in0.0 mm 0.07 in1.8 mm
03:25 PM 36.3°F2.4°C 34.7°F1.5°C 94% Calm Calm -- 30.21 in1023.0 mb 0.00 in0.0 mm 0.00 in0.0 mm 0.07 in1.8 mm
03:29 PM 36.4°F2.4°C 34.8°F1.6°C 94% Calm Calm -- 30.21 in1023.0 mb 0.00 in0.0 mm 0.00 in0.0 mm 0.07 in1.8 mm
03:30 PM 36.4°F2.4°C 34.8°F1.6°C 94% Calm Calm -- 30.21 in1023.0 mb 0.00 in0.0 mm 0.00 in0.0 mm 0.07 in1.8 mm
03:34 PM 36.5°F2.5°C 34.9°F1.6°C 94% Calm Calm -- 30.21 in1023.0 mb 0.00 in0.0 mm 0.00 in0.0 mm 0.07 in1.8 mm
03:35 PM 36.5°F2.5°C 34.9°F1.6°C 94% Calm Calm -- 30.21 in1023.0 mb 0.00 in0.0 mm 0.00 in0.0 mm 0.07 in1.8 mm
03:39 PM 36.5°F2.5°C 34.9°F1.6°C 94% Calm Calm 2.0 mph3.2 kmh 30.21 in1023.0 mb 0.00 in0.0 mm 0.00 in0.0 mm 0.07 in1.8 mm
03:40 PM 36.4°F2.4°C 34.8°F1.6°C 94% Calm Calm 2.0 mph3.2 kmh 30.21 in1023.0 mb 0.00 in0.0 mm 0.00 in0.0 mm 0.07 in1.8 mm
03:44 PM 36.4°F2.4°C 34.8°F1.6°C 94% Calm Calm -- 30.20 in1022.7 mb 0.00 in0.0 mm 0.00 in0.0 mm 0.07 in1.8 mm
03:45 PM 36.4°F2.4°C 34.8°F1.6°C 94% Calm Calm 2.0 mph3.2 kmh 30.20 in1022.7 mb 0.00 in0.0 mm 0.00 in0.0 mm 0.07 in1.8 mm
03:49 PM 36.3°F2.4°C 34.7°F1.5°C 94% Calm Calm 2.0 mph3.2 kmh 30.20 in1022.7 mb 0.00 in0.0 mm 0.00 in0.0 mm 0.07 in1.8 mm
03:50 PM 36.3°F2.4°C 34.7°F1.5°C 94% Calm Calm 3.0 mph4.8 kmh 30.20 in1022.7 mb 0.00 in0.0 mm 0.00 in0.0 mm 0.07 in1.8 mm
03:54 PM 36.3°F2.4°C 34.7°F1.5°C 94% Calm Calm -- 30.20 in1022.7 mb 0.00 in0.0 mm 0.00 in0.0 mm 0.07 in1.8 mm
03:55 PM 36.3°F2.4°C 35.0°F1.7°C 95% Calm Calm 3.0 mph4.8 kmh 30.20 in1022.7 mb 0.00 in0.0 mm 0.00 in0.0 mm 0.07 in1.8 mm
03:59 PM 36.3°F2.4°C 35.0°F1.7°C 95% Calm Calm 2.0 mph3.2 kmh 30.20 in1022.7 mb 0.00 in0.0 mm 0.00 in0.0 mm 0.07 in1.8 mm
04:00 PM 36.3°F2.4°C 35.0°F1.7°C 95% Calm Calm 2.0 mph3.2 kmh 30.20 in1022.7 mb 0.00 in0.0 mm 0.00 in0.0 mm 0.07 in1.8 mm
04:04 PM 36.2°F2.3°C 34.6°F1.4°C 94% 3.0 mph NNE4.8 kmh NNE 4.0 mph6.4 kmh 30.19 in1022.4 mb 0.00 in0.0 mm 0.00 in0.0 mm 0.07 in1.8 mm
04:05 PM 36.2°F2.3°C 34.6°F1.4°C 94% Calm Calm 4.0 mph6.4 kmh 30.19 in1022.4 mb 0.00 in0.0 mm 0.00 in0.0 mm 0.07 in1.8 mm
04:09 PM 36.2°F2.3°C 34.6°F1.4°C 94% 1.0 mph NNE1.6 kmh NNE 3.0 mph4.8 kmh 30.20 in1022.7 mb 0.00 in0.0 mm 0.00 in0.0 mm 0.07 in1.8 mm
04:10 PM 36.2°F2.3°C 34.9°F1.6°C 95% Calm Calm 3.0 mph4.8 kmh 30.20 in1022.7 mb 0.00 in0.0 mm 0.00 in0.0 mm 0.07 in1.8 mm
04:14 PM 36.1°F2.3°C 34.5°F1.4°C 94% Calm Calm -- 30.20 in1022.7 mb 0.00 in0.0 mm 0.00 in0.0 mm 0.07 in1.8 mm
04:15 PM 36.1°F2.3°C 34.5°F1.4°C 94% Calm Calm 2.0 mph3.2 kmh 30.20 in1022.7 mb 0.00 in0.0 mm 0.00 in0.0 mm 0.07 in1.8 mm
04:19 PM 36.0°F2.2°C 34.4°F1.3°C 94% Calm Calm 2.0 mph3.2 kmh 30.20 in1022.7 mb 0.00 in0.0 mm 0.00 in0.0 mm 0.07 in1.8 mm
04:20 PM 36.0°F2.2°C 34.4°F1.3°C 94% Calm Calm 2.0 mph3.2 kmh 30.20 in1022.7 mb 0.00 in0.0 mm 0.00 in0.0 mm 0.07 in1.8 mm
04:24 PM 36.0°F2.2°C 34.4°F1.3°C 94% Calm Calm 1.0 mph1.6 kmh 30.20 in1022.7 mb 0.00 in0.0 mm 0.00 in0.0 mm 0.07 in1.8 mm
04:25 PM 36.0°F2.2°C 34.4°F1.3°C 94% Calm Calm 1.0 mph1.6 kmh 30.20 in1022.7 mb 0.00 in0.0 mm 0.00 in0.0 mm 0.07 in1.8 mm
04:29 PM 36.0°F2.2°C 34.4°F1.3°C 94% Calm Calm -- 30.20 in1022.7 mb 0.00 in0.0 mm 0.00 in0.0 mm 0.07 in1.8 mm
04:30 PM 36.0°F2.2°C 34.4°F1.3°C 94% Calm Calm 1.0 mph1.6 kmh 30.20 in1022.7 mb 0.00 in0.0 mm 0.00 in0.0 mm 0.07 in1.8 mm
04:34 PM 35.9°F2.2°C 34.4°F1.3°C 94% Calm Calm 3.0 mph4.8 kmh 30.19 in1022.4 mb 0.00 in0.0 mm 0.00 in0.0 mm 0.07 in1.8 mm
04:35 PM 35.9°F2.2°C 34.4°F1.3°C 94% Calm Calm 1.0 mph1.6 kmh 30.20 in1022.7 mb 0.00 in0.0 mm 0.00 in0.0 mm 0.07 in1.8 mm
04:39 PM 35.9°F2.2°C 34.4°F1.3°C 94% Calm Calm 3.0 mph4.8 kmh 30.20 in1022.7 mb 0.00 in0.0 mm 0.00 in0.0 mm 0.07 in1.8 mm
04:40 PM 35.9°F2.2°C 34.4°F1.3°C 94% Calm Calm -- 30.20 in1022.7 mb 0.00 in0.0 mm 0.00 in0.0 mm 0.07 in1.8 mm
04:44 PM 35.9°F2.2°C 34.4°F1.3°C 94% Calm Calm -- 30.20 in1022.7 mb 0.00 in0.0 mm 0.00 in0.0 mm 0.07 in1.8 mm
04:45 PM 35.9°F2.2°C 34.4°F1.3°C 94% Calm Calm -- 30.20 in1022.7 mb 0.00 in0.0 mm 0.00 in0.0 mm 0.07 in1.8 mm
04:49 PM 35.9°F2.2°C 34.4°F1.3°C 94% Calm Calm -- 30.19 in1022.4 mb 0.00 in0.0 mm 0.00 in0.0 mm 0.07 in1.8 mm
04:50 PM 35.9°F2.2°C 34.4°F1.3°C 94% Calm Calm -- 30.19 in1022.4 mb 0.00 in0.0 mm 0.00 in0.0 mm 0.07 in1.8 mm
04:54 PM 35.9°F2.2°C 34.6°F1.4°C 95% Calm Calm 1.0 mph1.6 kmh 30.19 in1022.4 mb 0.00 in0.0 mm 0.00 in0.0 mm 0.07 in1.8 mm
04:55 PM 35.9°F2.2°C 34.6°F1.4°C 95% 2.0 mph NNE3.2 kmh NNE 5.0 mph8.0 kmh 30.19 in1022.4 mb 0.00 in0.0 mm 0.00 in0.0 mm 0.07 in1.8 mm
04:59 PM 35.8°F2.1°C 34.5°F1.4°C 95% Calm Calm 4.0 mph6.4 kmh 30.19 in1022.4 mb 0.00 in0.0 mm 0.00 in0.0 mm 0.07 in1.8 mm
05:00 PM 35.8°F2.1°C 34.5°F1.4°C 95% 1.0 mph NNE1.6 kmh NNE 1.0 mph1.6 kmh 30.19 in1022.4 mb 0.00 in0.0 mm 0.00 in0.0 mm 0.07 in1.8 mm
05:04 PM 35.7°F2.1°C 34.4°F1.3°C 95% Calm Calm 2.0 mph3.2 kmh 30.18 in1022.0 mb 0.00 in0.0 mm 0.00 in0.0 mm 0.07 in1.8 mm
05:05 PM 35.7°F2.1°C 34.4°F1.3°C 95% Calm Calm -- 30.18 in1022.0 mb 0.00 in0.0 mm 0.00 in0.0 mm 0.07 in1.8 mm
05:09 PM 35.6°F2.0°C 34.6°F1.4°C 96% Calm Calm 2.0 mph3.2 kmh 30.18 in1022.0 mb 0.01 in0.3 mm 0.15 in3.8 mm 0.08 in2.0 mm
05:10 PM 35.6°F2.0°C 34.6°F1.4°C 96% Calm Calm 1.0 mph1.6 kmh 30.18 in1022.0 mb 0.01 in0.3 mm 0.00 in0.0 mm 0.08 in2.0 mm
05:14 PM 35.5°F1.9°C 34.5°F1.4°C 96% Calm Calm 2.0 mph3.2 kmh 30.18 in1022.0 mb 0.02 in0.5 mm 0.15 in3.8 mm 0.09 in2.3 mm
05:15 PM 35.5°F1.9°C 34.5°F1.4°C 96% 3.0 mph NE4.8 kmh NE 3.0 mph4.8 kmh 30.18 in1022.0 mb 0.02 in0.5 mm 0.00 in0.0 mm 0.09 in2.3 mm
05:19 PM 35.4°F1.9°C 34.4°F1.3°C 96% Calm Calm 3.0 mph4.8 kmh 30.18 in1022.0 mb 0.02 in0.5 mm 0.00 in0.0 mm 0.09 in2.3 mm
05:20 PM 35.4°F1.9°C 34.4°F1.3°C 96% Calm Calm 1.0 mph1.6 kmh 30.18 in1022.0 mb 0.02 in0.5 mm 0.00 in0.0 mm 0.09 in2.3 mm
05:24 PM 35.4°F1.9°C 34.6°F1.4°C 97% Calm Calm 1.0 mph1.6 kmh 30.18 in1022.0 mb 0.02 in0.5 mm 0.00 in0.0 mm 0.09 in2.3 mm
05:25 PM 35.4°F1.9°C 34.6°F1.4°C 97% Calm Calm -- 30.17 in1021.7 mb 0.02 in0.5 mm 0.00 in0.0 mm 0.09 in2.3 mm
05:29 PM 35.3°F1.8°C 34.5°F1.4°C 97% Calm Calm 3.0 mph4.8 kmh 30.17 in1021.7 mb 0.02 in0.5 mm 0.00 in0.0 mm 0.09 in2.3 mm
05:30 PM 35.3°F1.8°C 34.5°F1.4°C 97% Calm Calm -- 30.18 in1022.0 mb 0.02 in0.5 mm 0.00 in0.0 mm 0.09 in2.3 mm
05:34 PM 35.3°F1.8°C 34.5°F1.4°C 97% Calm Calm 2.0 mph3.2 kmh 30.17 in1021.7 mb 0.03 in0.8 mm 0.15 in3.8 mm 0.10 in2.5 mm
05:35 PM 35.3°F1.8°C 34.5°F1.4°C 97% Calm Calm -- 30.17 in1021.7 mb 0.03 in0.8 mm 0.00 in0.0 mm 0.10 in2.5 mm
05:39 PM 35.3°F1.8°C 34.5°F1.4°C 97% 1.0 mph NE1.6 kmh NE 1.0 mph1.6 kmh 30.17 in1021.7 mb 0.03 in0.8 mm 0.00 in0.0 mm 0.10 in2.5 mm
05:40 PM 35.2°F1.8°C 34.4°F1.3°C 97% 2.0 mph NE3.2 kmh NE 2.0 mph3.2 kmh 30.17 in1021.7 mb 0.03 in0.8 mm 0.00 in0.0 mm 0.10 in2.5 mm
05:44 PM 35.2°F1.8°C 34.4°F1.3°C 97% Calm Calm 2.0 mph3.2 kmh 30.17 in1021.7 mb 0.03 in0.8 mm 0.00 in0.0 mm 0.10 in2.5 mm
05:45 PM 35.2°F1.8°C 34.7°F1.5°C 98% 2.0 mph NE3.2 kmh NE 3.0 mph4.8 kmh 30.17 in1021.7 mb 0.03 in0.8 mm 0.00 in0.0 mm 0.10 in2.5 mm
05:49 PM 35.1°F1.7°C 34.6°F1.4°C 98% 1.0 mph NE1.6 kmh NE 4.0 mph6.4 kmh 30.17 in1021.7 mb 0.03 in0.8 mm 0.00 in0.0 mm 0.10 in2.5 mm
05:50 PM 35.1°F1.7°C 34.6°F1.4°C 98% Calm Calm 2.0 mph3.2 kmh 30.17 in1021.7 mb 0.03 in0.8 mm 0.00 in0.0 mm 0.10 in2.5 mm
05:54 PM 35.1°F1.7°C 34.6°F1.4°C 98% Calm Calm -- 30.17 in1021.7 mb 0.03 in0.8 mm 0.00 in0.0 mm 0.10 in2.5 mm
05:55 PM 35.1°F1.7°C 34.6°F1.4°C 98% 1.0 mph NE1.6 kmh NE 3.0 mph4.8 kmh 30.17 in1021.7 mb 0.03 in0.8 mm 0.00 in0.0 mm 0.10 in2.5 mm
05:59 PM 35.1°F1.7°C 34.6°F1.4°C 98% Calm Calm -- 30.17 in1021.7 mb 0.03 in0.8 mm 0.00 in0.0 mm 0.10 in2.5 mm
06:00 PM 35.1°F1.7°C 34.6°F1.4°C 98% Calm Calm -- 30.17 in1021.7 mb 0.03 in0.8 mm 0.00 in0.0 mm 0.10 in2.5 mm
06:04 PM 35.0°F1.7°C 34.5°F1.4°C 98% Calm Calm 2.0 mph3.2 kmh 30.16 in1021.3 mb 0.03 in0.8 mm 0.00 in0.0 mm 0.10 in2.5 mm
06:05 PM 35.0°F1.7°C 34.5°F1.4°C 98% Calm Calm 1.0 mph1.6 kmh 30.16 in1021.3 mb 0.03 in0.8 mm 0.00 in0.0 mm 0.10 in2.5 mm
06:09 PM 35.0°F1.7°C 34.5°F1.4°C 98% 3.0 mph NE4.8 kmh NE 3.0 mph4.8 kmh 30.16 in1021.3 mb 0.03 in0.8 mm 0.00 in0.0 mm 0.10 in2.5 mm
06:10 PM 35.0°F1.7°C 34.5°F1.4°C 98% 2.0 mph NE3.2 kmh NE 4.0 mph6.4 kmh 30.16 in1021.3 mb 0.02 in0.5 mm 0.00 in0.0 mm 0.10 in2.5 mm
06:14 PM 34.9°F1.6°C 34.4°F1.3°C 98% 1.0 mph NE1.6 kmh NE 2.0 mph3.2 kmh 30.17 in1021.7 mb 0.03 in0.8 mm 0.15 in3.8 mm 0.11 in2.8 mm
06:15 PM 34.9°F1.6°C 34.4°F1.3°C 98% Calm Calm 2.0 mph3.2 kmh 30.17 in1021.7 mb 0.03 in0.8 mm 0.00 in0.0 mm 0.11 in2.8 mm
06:19 PM 34.8°F1.6°C 34.3°F1.3°C 98% 1.0 mph NE1.6 kmh NE 2.0 mph3.2 kmh 30.17 in1021.7 mb 0.03 in0.8 mm 0.00 in0.0 mm 0.11 in2.8 mm
06:20 PM 34.8°F1.6°C 34.3°F1.3°C 98% 2.0 mph NE3.2 kmh NE 5.0 mph8.0 kmh 30.17 in1021.7 mb 0.02 in0.5 mm 0.00 in0.0 mm 0.11 in2.8 mm
06:24 PM 34.8°F1.6°C 34.3°F1.3°C 98% Calm Calm 4.0 mph6.4 kmh 30.17 in1021.7 mb 0.02 in0.5 mm 0.00 in0.0 mm 0.11 in2.8 mm
06:25 PM 34.8°F1.6°C 34.3°F1.3°C 98% Calm Calm 1.0 mph1.6 kmh 30.17 in1021.7 mb 0.02 in0.5 mm 0.00 in0.0 mm 0.11 in2.8 mm
06:29 PM 34.8°F1.6°C 34.3°F1.3°C 98% Calm Calm 2.0 mph3.2 kmh 30.17 in1021.7 mb 0.02 in0.5 mm 0.00 in0.0 mm 0.11 in2.8 mm
06:30 PM 34.7°F1.5°C 34.2°F1.2°C 98% Calm Calm -- 30.17 in1021.7 mb 0.02 in0.5 mm 0.00 in0.0 mm 0.11 in2.8 mm
06:34 PM 34.7°F1.5°C 34.2°F1.2°C 98% 1.0 mph NE1.6 kmh NE 1.0 mph1.6 kmh 30.18 in1022.0 mb 0.02 in0.5 mm 0.00 in0.0 mm 0.11 in2.8 mm
06:35 PM 34.7°F1.5°C 34.2°F1.2°C 98% Calm Calm 2.0 mph3.2 kmh 30.18 in1022.0 mb 0.02 in0.5 mm 0.00 in0.0 mm 0.11 in2.8 mm
06:39 PM 34.7°F1.5°C 34.2°F1.2°C 98% Calm Calm -- 30.18 in1022.0 mb 0.02 in0.5 mm 0.00 in0.0 mm 0.11 in2.8 mm
06:40 PM 34.7°F1.5°C 34.2°F1.2°C 98% Calm Calm -- 30.18 in1022.0 mb 0.01 in0.3 mm 0.00 in0.0 mm 0.11 in2.8 mm
06:44 PM 34.7°F1.5°C 34.2°F1.2°C 98% 1.0 mph NE1.6 kmh NE 1.0 mph1.6 kmh 30.19 in1022.4 mb 0.01 in0.3 mm 0.00 in0.0 mm 0.11 in2.8 mm
06:45 PM 34.7°F1.5°C 34.2°F1.2°C 98% Calm Calm 1.0 mph1.6 kmh 30.19 in1022.4 mb 0.01 in0.3 mm 0.00 in0.0 mm 0.11 in2.8 mm
06:49 PM 34.7°F1.5°C 34.2°F1.2°C 98% Calm Calm 1.0 mph1.6 kmh 30.18 in1022.0 mb 0.01 in0.3 mm 0.00 in0.0 mm 0.11 in2.8 mm
06:50 PM 34.7°F1.5°C 34.2°F1.2°C 98% Calm Calm -- 30.19 in1022.4 mb 0.01 in0.3 mm 0.00 in0.0 mm 0.11 in2.8 mm
06:54 PM 34.7°F1.5°C 34.2°F1.2°C 98% Calm Calm -- 30.19 in1022.4 mb 0.01 in0.3 mm 0.00 in0.0 mm 0.11 in2.8 mm
06:55 PM 34.6°F1.4°C 34.1°F1.2°C 98% Calm Calm -- 30.19 in1022.4 mb 0.01 in0.3 mm 0.00 in0.0 mm 0.11 in2.8 mm
06:59 PM 34.6°F1.4°C 34.1°F1.2°C 98% 1.0 mph NE1.6 kmh NE 2.0 mph3.2 kmh 30.19 in1022.4 mb 0.01 in0.3 mm 0.00 in0.0 mm 0.11 in2.8 mm
07:00 PM 34.7°F1.5°C 34.2°F1.2°C 98% 1.0 mph NE1.6 kmh NE 2.0 mph3.2 kmh 30.19 in1022.4 mb 0.02 in0.5 mm 0.01 in0.3 mm 0.12 in3.0 mm
07:04 PM 34.7°F1.5°C 34.2°F1.2°C 98% Calm Calm -- 30.19 in1022.4 mb 0.02 in0.5 mm 0.00 in0.0 mm 0.12 in3.0 mm
07:05 PM 34.7°F1.5°C 34.2°F1.2°C 98% Calm Calm -- 30.19 in1022.4 mb 0.02 in0.5 mm 0.00 in0.0 mm 0.12 in3.0 mm
07:09 PM 34.7°F1.5°C 34.2°F1.2°C 98% 1.0 mph NE1.6 kmh NE 2.0 mph3.2 kmh 30.19 in1022.4 mb 0.02 in0.5 mm 0.00 in0.0 mm 0.12 in3.0 mm
07:10 PM 34.7°F1.5°C 34.2°F1.2°C 98% 2.0 mph NE3.2 kmh NE 3.0 mph4.8 kmh 30.19 in1022.4 mb 0.02 in0.5 mm 0.00 in0.0 mm 0.12 in3.0 mm
07:14 PM 34.6°F1.4°C 34.1°F1.2°C 98% 1.0 mph NE1.6 kmh NE 2.0 mph3.2 kmh 30.19 in1022.4 mb 0.03 in0.8 mm 0.15 in3.8 mm 0.13 in3.3 mm
07:15 PM 34.6°F1.4°C 34.1°F1.2°C 98% 2.0 mph NE3.2 kmh NE 3.0 mph4.8 kmh 30.19 in1022.4 mb 0.03 in0.8 mm 0.00 in0.0 mm 0.13 in3.3 mm
07:19 PM 34.6°F1.4°C 34.1°F1.2°C 98% 1.0 mph NE1.6 kmh NE 2.0 mph3.2 kmh 30.19 in1022.4 mb 0.03 in0.8 mm 0.00 in0.0 mm 0.13 in3.3 mm
07:20 PM 34.6°F1.4°C 34.1°F1.2°C 98% 1.0 mph NE1.6 kmh NE 2.0 mph3.2 kmh 30.19 in1022.4 mb 0.02 in0.5 mm 0.00 in0.0 mm 0.13 in3.3 mm
07:24 PM 34.6°F1.4°C 34.1°F1.2°C 98% 3.0 mph NE4.8 kmh NE 3.0 mph4.8 kmh 30.19 in1022.4 mb 0.03 in0.8 mm 0.15 in3.8 mm 0.14 in3.6 mm
07:25 PM 34.6°F1.4°C 34.1°F1.2°C 98% 2.0 mph NE3.2 kmh NE 3.0 mph4.8 kmh 30.19 in1022.4 mb 0.04 in1.0 mm 0.60 in15.2 mm 0.15 in3.8 mm
07:29 PM 34.6°F1.4°C 34.1°F1.2°C 98% 4.0 mph NE6.4 kmh NE 4.0 mph6.4 kmh 30.19 in1022.4 mb 0.04 in1.0 mm 0.00 in0.0 mm 0.15 in3.8 mm
07:30 PM 34.6°F1.4°C 34.1°F1.2°C 98% 3.0 mph NE4.8 kmh NE 4.0 mph6.4 kmh 30.19 in1022.4 mb 0.05 in1.3 mm 0.60 in15.2 mm 0.16 in4.1 mm
07:34 PM 34.6°F1.4°C 34.1°F1.2°C 98% 4.0 mph NNE6.4 kmh NNE 4.0 mph6.4 kmh 30.19 in1022.4 mb 0.06 in1.5 mm 0.15 in3.8 mm 0.17 in4.3 mm
07:35 PM 34.6°F1.4°C 34.1°F1.2°C 98% 4.0 mph NNE6.4 kmh NNE 4.0 mph6.4 kmh 30.19 in1022.4 mb 0.06 in1.5 mm 0.00 in0.0 mm 0.17 in4.3 mm
07:39 PM 34.5°F1.4°C 34.0°F1.1°C 98% Calm Calm 3.0 mph4.8 kmh 30.19 in1022.4 mb 0.07 in1.8 mm 0.15 in3.8 mm 0.18 in4.6 mm
07:40 PM 34.5°F1.4°C 34.0°F1.1°C 98% 4.0 mph NNE6.4 kmh NNE 6.0 mph9.7 kmh 30.19 in1022.4 mb 0.07 in1.8 mm 0.00 in0.0 mm 0.18 in4.6 mm
07:44 PM 34.5°F1.4°C 34.0°F1.1°C 98% 5.0 mph N8.0 kmh N 5.0 mph8.0 kmh 30.19 in1022.4 mb 0.08 in2.0 mm 0.15 in3.8 mm 0.19 in4.8 mm
07:45 PM 34.5°F1.4°C 34.0°F1.1°C 98% 5.0 mph N8.0 kmh N 5.0 mph8.0 kmh 30.19 in1022.4 mb 0.08 in2.0 mm 0.00 in0.0 mm 0.19 in4.8 mm
07:49 PM 34.4°F1.3°C 33.9°F1.1°C 98% 3.0 mph N4.8 kmh N 4.0 mph6.4 kmh 30.19 in1022.4 mb 0.09 in2.3 mm 0.15 in3.8 mm 0.20 in5.1 mm
07:50 PM 34.4°F1.3°C 33.9°F1.1°C 98% 4.0 mph N6.4 kmh N 4.0 mph6.4 kmh 30.19 in1022.4 mb 0.09 in2.3 mm 0.00 in0.0 mm 0.20 in5.1 mm
07:54 PM 34.4°F1.3°C 34.2°F1.2°C 99% 4.0 mph N6.4 kmh N 7.0 mph11.3 kmh 30.19 in1022.4 mb 0.10 in2.5 mm 0.15 in3.8 mm 0.21 in5.3 mm
07:55 PM 34.4°F1.3°C 34.2°F1.2°C 99% 5.0 mph N8.0 kmh N 5.0 mph8.0 kmh 30.19 in1022.4 mb 0.10 in2.5 mm 0.00 in0.0 mm 0.21 in5.3 mm
07:59 PM 34.4°F1.3°C 34.2°F1.2°C 99% 7.0 mph N11.3 kmh N 9.0 mph14.5 kmh 30.19 in1022.4 mb 0.11 in2.8 mm 0.15 in3.8 mm 0.22 in5.6 mm
08:00 PM 34.4°F1.3°C 34.2°F1.2°C 99% 5.0 mph N8.0 kmh N 9.0 mph14.5 kmh 30.19 in1022.4 mb 0.10 in2.5 mm 0.00 in0.0 mm 0.22 in5.6 mm
08:04 PM 34.3°F1.3°C 34.1°F1.2°C 99% 3.0 mph N4.8 kmh N 3.0 mph4.8 kmh 30.19 in1022.4 mb 0.11 in2.8 mm 0.15 in3.8 mm 0.23 in5.8 mm
08:05 PM 34.3°F1.3°C 34.1°F1.2°C 99% 3.0 mph N4.8 kmh N 6.0 mph9.7 kmh 30.19 in1022.4 mb 0.11 in2.8 mm 0.00 in0.0 mm 0.23 in5.8 mm
08:09 PM 34.3°F1.3°C 34.1°F1.2°C 99% Calm Calm 4.0 mph6.4 kmh 30.19 in1022.4 mb 0.11 in2.8 mm 0.00 in0.0 mm 0.23 in5.8 mm
08:10 PM 34.2°F1.2°C 34.0°F1.1°C 99% 2.0 mph N3.2 kmh N 4.0 mph6.4 kmh 30.20 in1022.7 mb 0.12 in3.0 mm 0.60 in15.2 mm 0.24 in6.1 mm
08:14 PM 34.2°F1.2°C 34.0°F1.1°C 99% Calm Calm 3.0 mph4.8 kmh 30.19 in1022.4 mb 0.13 in3.3 mm 0.15 in3.8 mm 0.25 in6.4 mm
08:15 PM 34.2°F1.2°C 34.0°F1.1°C 99% Calm Calm 1.0 mph1.6 kmh 30.20 in1022.7 mb 0.13 in3.3 mm 0.00 in0.0 mm 0.25 in6.4 mm
08:19 PM 34.2°F1.2°C 34.0°F1.1°C 99% Calm Calm 2.0 mph3.2 kmh 30.19 in1022.4 mb 0.13 in3.3 mm 0.00 in0.0 mm 0.25 in6.4 mm
08:20 PM 34.2°F1.2°C 34.0°F1.1°C 99% Calm Calm -- 30.19 in1022.4 mb 0.12 in3.0 mm 0.00 in0.0 mm 0.25 in6.4 mm
08:24 PM 34.2°F1.2°C 34.0°F1.1°C 99% Calm Calm 1.0 mph1.6 kmh 30.19 in1022.4 mb 0.13 in3.3 mm 0.15 in3.8 mm 0.26 in6.6 mm
08:25 PM 34.2°F1.2°C 34.0°F1.1°C 99% Calm Calm -- 30.19 in1022.4 mb 0.13 in3.3 mm 0.00 in0.0 mm 0.26 in6.6 mm
08:29 PM 34.2°F1.2°C 34.0°F1.1°C 99% 2.0 mph N3.2 kmh N 3.0 mph4.8 kmh 30.19 in1022.4 mb 0.14 in3.6 mm 0.15 in3.8 mm 0.27 in6.9 mm
08:30 PM 34.1°F1.2°C 33.9°F1.1°C 99% Calm Calm 4.0 mph6.4 kmh 30.19 in1022.4 mb 0.11 in2.8 mm 0.00 in0.0 mm 0.27 in6.9 mm
08:34 PM 34.1°F1.2°C 33.9°F1.1°C 99% Calm Calm -- 30.19 in1022.4 mb 0.12 in3.0 mm 0.15 in3.8 mm 0.28 in7.1 mm
08:35 PM 34.1°F1.2°C 33.9°F1.1°C 99% 1.0 mph N1.6 kmh N 3.0 mph4.8 kmh 30.18 in1022.0 mb 0.12 in3.0 mm 0.00 in0.0 mm 0.28 in7.1 mm
08:39 PM 34.1°F1.2°C 33.6°F0.9°C 98% Calm Calm 1.0 mph1.6 kmh 30.18 in1022.0 mb 0.13 in3.3 mm 0.15 in3.8 mm 0.29 in7.4 mm
08:40 PM 34.1°F1.2°C 33.6°F0.9°C 98% Calm Calm -- 30.18 in1022.0 mb 0.11 in2.8 mm 0.00 in0.0 mm 0.29 in7.4 mm
08:44 PM 34.0°F1.1°C 33.5°F0.8°C 98% Calm Calm 1.0 mph1.6 kmh 30.18 in1022.0 mb 0.11 in2.8 mm 0.00 in0.0 mm 0.29 in7.4 mm
08:45 PM 34.1°F1.2°C 33.6°F0.9°C 98% Calm Calm -- 30.18 in1022.0 mb 0.12 in3.0 mm 0.60 in15.2 mm 0.30 in7.6 mm
08:49 PM 34.0°F1.1°C 33.5°F0.8°C 98% Calm Calm 1.0 mph1.6 kmh 30.18 in1022.0 mb 0.13 in3.3 mm 0.15 in3.8 mm 0.31 in7.9 mm
08:50 PM 34.0°F1.1°C 33.5°F0.8°C 98% Calm Calm -- 30.18 in1022.0 mb 0.11 in2.8 mm 0.00 in0.0 mm 0.31 in7.9 mm
08:54 PM 34.0°F1.1°C 33.5°F0.8°C 98% Calm Calm 1.0 mph1.6 kmh 30.18 in1022.0 mb 0.11 in2.8 mm 0.00 in0.0 mm 0.31 in7.9 mm
08:55 PM 34.0°F1.1°C 33.5°F0.8°C 98% Calm Calm -- 30.18 in1022.0 mb 0.12 in3.0 mm 0.60 in15.2 mm 0.32 in8.1 mm
08:59 PM 34.0°F1.1°C 33.5°F0.8°C 98% Calm Calm -- 30.18 in1022.0 mb 0.12 in3.0 mm 0.00 in0.0 mm 0.32 in8.1 mm
09:00 PM 34.0°F1.1°C 33.5°F0.8°C 98% Calm Calm -- 30.18 in1022.0 mb 0.11 in2.8 mm 0.00 in0.0 mm 0.32 in8.1 mm
09:04 PM 34.0°F1.1°C 33.5°F0.8°C 98% Calm Calm -- 30.18 in1022.0 mb 0.11 in2.8 mm 0.00 in0.0 mm 0.32 in8.1 mm
09:05 PM 34.0°F1.1°C 33.5°F0.8°C 98% Calm Calm -- 30.18 in1022.0 mb 0.11 in2.8 mm 0.00 in0.0 mm 0.32 in8.1 mm
09:09 PM 34.0°F1.1°C 33.5°F0.8°C 98% Calm Calm -- 30.18 in1022.0 mb 0.12 in3.0 mm 0.15 in3.8 mm 0.33 in8.4 mm
09:10 PM 34.0°F1.1°C 33.5°F0.8°C 98% Calm Calm -- 30.18 in1022.0 mb 0.11 in2.8 mm 0.00 in0.0 mm 0.33 in8.4 mm
09:14 PM 33.9°F1.1°C 33.4°F0.8°C 98% Calm Calm -- 30.18 in1022.0 mb 0.11 in2.8 mm 0.00 in0.0 mm 0.33 in8.4 mm
09:15 PM 33.9°F1.1°C 33.4°F0.8°C 98% Calm Calm -- 30.18 in1022.0 mb 0.11 in2.8 mm 0.00 in0.0 mm 0.33 in8.4 mm
09:19 PM 33.9°F1.1°C 33.4°F0.8°C 98% Calm Calm -- 30.18 in1022.0 mb 0.12 in3.0 mm 0.15 in3.8 mm 0.34 in8.6 mm
09:20 PM 34.0°F1.1°C 33.5°F0.8°C 98% Calm Calm -- 30.18 in1022.0 mb 0.11 in2.8 mm 0.00 in0.0 mm 0.34 in8.6 mm
09:24 PM 33.9°F1.1°C 33.4°F0.8°C 98% Calm Calm -- 30.17 in1021.7 mb 0.12 in3.0 mm 0.15 in3.8 mm 0.35 in8.9 mm
09:25 PM 33.9°F1.1°C 33.4°F0.8°C 98% 1.0 mph N1.6 kmh N 1.0 mph1.6 kmh 30.17 in1021.7 mb 0.12 in3.0 mm 0.00 in0.0 mm 0.35 in8.9 mm
09:29 PM 33.9°F1.1°C 33.4°F0.8°C 98% Calm Calm -- 30.17 in1021.7 mb 0.13 in3.3 mm 0.15 in3.8 mm 0.36 in9.1 mm
09:30 PM 33.9°F1.1°C 33.4°F0.8°C 98% Calm Calm -- 30.17 in1021.7 mb 0.11 in2.8 mm 0.00 in0.0 mm 0.36 in9.1 mm
09:34 PM 33.9°F1.1°C 33.4°F0.8°C 98% 2.0 mph N3.2 kmh N 4.0 mph6.4 kmh 30.16 in1021.3 mb 0.12 in3.0 mm 0.15 in3.8 mm 0.37 in9.4 mm
09:35 PM 33.9°F1.1°C 33.4°F0.8°C 98% Calm Calm 3.0 mph4.8 kmh 30.16 in1021.3 mb 0.12 in3.0 mm 0.00 in0.0 mm 0.37 in9.4 mm
09:39 PM 33.9°F1.1°C 33.4°F0.8°C 98% 1.0 mph N1.6 kmh N 2.0 mph3.2 kmh 30.16 in1021.3 mb 0.13 in3.3 mm 0.15 in3.8 mm 0.38 in9.7 mm
09:40 PM 33.9°F1.1°C 33.4°F0.8°C 98% 3.0 mph N4.8 kmh N 3.0 mph4.8 kmh 30.16 in1021.3 mb 0.11 in2.8 mm 0.00 in0.0 mm 0.38 in9.7 mm
09:44 PM 33.8°F1.0°C 33.3°F0.7°C 98% Calm Calm 3.0 mph4.8 kmh 30.15 in1021.0 mb 0.12 in3.0 mm 0.15 in3.8 mm 0.39 in9.9 mm
09:45 PM 33.8°F1.0°C 33.3°F0.7°C 98% Calm Calm 4.0 mph6.4 kmh 30.15 in1021.0 mb 0.12 in3.0 mm 0.00 in0.0 mm 0.39 in9.9 mm
09:49 PM 33.8°F1.0°C 33.3°F0.7°C 98% 1.0 mph N1.6 kmh N 4.0 mph6.4 kmh 30.15 in1021.0 mb 0.13 in3.3 mm 0.15 in3.8 mm 0.40 in10.2 mm
09:50 PM 33.8°F1.0°C 33.3°F0.7°C 98% 2.0 mph N3.2 kmh N 2.0 mph3.2 kmh 30.14 in1020.7 mb 0.12 in3.0 mm 0.00 in0.0 mm 0.40 in10.2 mm
09:54 PM 33.8°F1.0°C 33.3°F0.7°C 98% 3.0 mph NE4.8 kmh NE 8.0 mph12.9 kmh 30.14 in1020.7 mb 0.12 in3.0 mm 0.00 in0.0 mm 0.40 in10.2 mm
09:55 PM 33.8°F1.0°C 33.3°F0.7°C 98% 4.0 mph NE6.4 kmh NE 4.0 mph6.4 kmh 30.14 in1020.7 mb 0.12 in3.0 mm 0.00 in0.0 mm 0.40 in10.2 mm
09:59 PM 33.7°F0.9°C 33.2°F0.7°C 98% 1.0 mph NE1.6 kmh NE 2.0 mph3.2 kmh 30.13 in1020.3 mb 0.13 in3.3 mm 0.15 in3.8 mm 0.41 in10.4 mm
10:00 PM 33.7°F0.9°C 33.2°F0.7°C 98% 3.0 mph NE4.8 kmh NE 4.0 mph6.4 kmh 30.13 in1020.3 mb 0.12 in3.0 mm 0.00 in0.0 mm 0.41 in10.4 mm
10:04 PM 33.7°F0.9°C 33.2°F0.7°C 98% 3.0 mph NNE4.8 kmh NNE 7.0 mph11.3 kmh 30.12 in1020.0 mb 0.12 in3.0 mm 0.00 in0.0 mm 0.41 in10.4 mm
10:05 PM 33.7°F0.9°C 33.2°F0.7°C 98% 2.0 mph NE3.2 kmh NE 6.0 mph9.7 kmh 30.12 in1020.0 mb 0.12 in3.0 mm 0.00 in0.0 mm 0.41 in10.4 mm
10:09 PM 33.7°F0.9°C 33.2°F0.7°C 98% Calm Calm 5.0 mph8.0 kmh 30.11 in1019.6 mb 0.13 in3.3 mm 0.15 in3.8 mm 0.42 in10.7 mm
10:10 PM 33.7°F0.9°C 33.2°F0.7°C 98% Calm Calm 2.0 mph3.2 kmh 30.11 in1019.6 mb 0.13 in3.3 mm 0.00 in0.0 mm 0.42 in10.7 mm
10:14 PM 33.7°F0.9°C 33.2°F0.7°C 98% Calm Calm -- 30.11 in1019.6 mb 0.13 in3.3 mm 0.00 in0.0 mm 0.42 in10.7 mm
10:15 PM 33.7°F0.9°C 33.2°F0.7°C 98% 4.0 mph NE6.4 kmh NE 5.0 mph8.0 kmh 30.12 in1020.0 mb 0.13 in3.3 mm 0.00 in0.0 mm 0.42 in10.7 mm
10:19 PM 33.7°F0.9°C 33.2°F0.7°C 98% 4.0 mph NNW6.4 kmh NNW 5.0 mph8.0 kmh 30.12 in1020.0 mb 0.14 in3.6 mm 0.15 in3.8 mm 0.43 in10.9 mm
10:20 PM 33.7°F0.9°C 33.2°F0.7°C 98% 6.0 mph N9.7 kmh N 6.0 mph9.7 kmh 30.12 in1020.0 mb 0.13 in3.3 mm 0.00 in0.0 mm 0.43 in10.9 mm
10:24 PM 33.7°F0.9°C 33.2°F0.7°C 98% Calm Calm 3.0 mph4.8 kmh 30.13 in1020.3 mb 0.13 in3.3 mm 0.00 in0.0 mm 0.43 in10.9 mm
10:25 PM 33.7°F0.9°C 33.2°F0.7°C 98% 4.0 mph N6.4 kmh N 4.0 mph6.4 kmh 30.14 in1020.7 mb 0.13 in3.3 mm 0.00 in0.0 mm 0.43 in10.9 mm
10:29 PM 33.7°F0.9°C 33.2°F0.7°C 98% 1.0 mph N1.6 kmh N 6.0 mph9.7 kmh 30.14 in1020.7 mb 0.14 in3.6 mm 0.15 in3.8 mm 0.44 in11.2 mm
10:30 PM 33.7°F0.9°C 33.2°F0.7°C 98% 5.0 mph NW8.0 kmh NW 6.0 mph9.7 kmh 30.15 in1021.0 mb 0.12 in3.0 mm 0.00 in0.0 mm 0.44 in11.2 mm
10:34 PM 33.7°F0.9°C 33.2°F0.7°C 98% Calm Calm 5.0 mph8.0 kmh 30.16 in1021.3 mb 0.13 in3.3 mm 0.15 in3.8 mm 0.45 in11.4 mm
10:35 PM 33.7°F0.9°C 33.2°F0.7°C 98% 5.0 mph NW8.0 kmh NW 6.0 mph9.7 kmh 30.15 in1021.0 mb 0.13 in3.3 mm 0.00 in0.0 mm 0.45 in11.4 mm
10:39 PM 33.8°F1.0°C 33.3°F0.7°C 98% Calm Calm 3.0 mph4.8 kmh 30.15 in1021.0 mb 0.13 in3.3 mm 0.00 in0.0 mm 0.45 in11.4 mm
10:40 PM 33.8°F1.0°C 33.3°F0.7°C 98% 3.0 mph NW4.8 kmh NW 3.0 mph4.8 kmh 30.15 in1021.0 mb 0.11 in2.8 mm 0.00 in0.0 mm 0.45 in11.4 mm
10:44 PM 33.8°F1.0°C 33.3°F0.7°C 98% 3.0 mph NW4.8 kmh NW 6.0 mph9.7 kmh 30.15 in1021.0 mb 0.12 in3.0 mm 0.15 in3.8 mm 0.46 in11.7 mm
10:45 PM 33.8°F1.0°C 33.3°F0.7°C 98% 3.0 mph NW4.8 kmh NW 4.0 mph6.4 kmh 30.15 in1021.0 mb 0.12 in3.0 mm 0.00 in0.0 mm 0.46 in11.7 mm
10:49 PM 33.8°F1.0°C 33.3°F0.7°C 98% 1.0 mph NW1.6 kmh NW 4.0 mph6.4 kmh 30.15 in1021.0 mb 0.13 in3.3 mm 0.15 in3.8 mm 0.47 in11.9 mm
10:50 PM 33.8°F1.0°C 33.3°F0.7°C 98% 3.0 mph NW4.8 kmh NW 5.0 mph8.0 kmh 30.15 in1021.0 mb 0.10 in2.5 mm 0.00 in0.0 mm 0.47 in11.9 mm
10:54 PM 33.8°F1.0°C 33.3°F0.7°C 98% 3.0 mph NW4.8 kmh NW 4.0 mph6.4 kmh 30.15 in1021.0 mb 0.10 in2.5 mm 0.00 in0.0 mm 0.47 in11.9 mm
10:55 PM 33.8°F1.0°C 33.3°F0.7°C 98% 3.0 mph NW4.8 kmh NW 4.0 mph6.4 kmh 30.14 in1020.7 mb 0.10 in2.5 mm 0.00 in0.0 mm 0.47 in11.9 mm
10:59 PM 33.8°F1.0°C 33.3°F0.7°C 98% 3.0 mph N4.8 kmh N 5.0 mph8.0 kmh 30.14 in1020.7 mb 0.10 in2.5 mm 0.00 in0.0 mm 0.47 in11.9 mm
11:00 PM 33.8°F1.0°C 33.3°F0.7°C 98% 2.0 mph N3.2 kmh N 4.0 mph6.4 kmh 30.14 in1020.7 mb 0.08 in2.0 mm 0.00 in0.0 mm 0.47 in11.9 mm
11:04 PM 33.7°F0.9°C 33.2°F0.7°C 98% 1.0 mph N1.6 kmh N 2.0 mph3.2 kmh 30.14 in1020.7 mb 0.08 in2.0 mm 0.00 in0.0 mm 0.47 in11.9 mm
11:05 PM 33.7°F0.9°C 33.2°F0.7°C 98% 2.0 mph N3.2 kmh N 4.0 mph6.4 kmh 30.14 in1020.7 mb 0.08 in2.0 mm 0.00 in0.0 mm 0.47 in11.9 mm
11:09 PM 33.8°F1.0°C 33.3°F0.7°C 98% Calm Calm -- 30.14 in1020.7 mb 0.08 in2.0 mm 0.00 in0.0 mm 0.47 in11.9 mm
11:10 PM 33.8°F1.0°C 33.3°F0.7°C 98% Calm Calm -- 30.14 in1020.7 mb 0.06 in1.5 mm 0.00 in0.0 mm 0.47 in11.9 mm
11:14 PM 33.8°F1.0°C 33.3°F0.7°C 98% Calm Calm -- 30.14 in1020.7 mb 0.06 in1.5 mm 0.00 in0.0 mm 0.47 in11.9 mm
11:15 PM 33.8°F1.0°C 33.3°F0.7°C 98% Calm Calm -- 30.14 in1020.7 mb 0.06 in1.5 mm 0.00 in0.0 mm 0.47 in11.9 mm
11:19 PM 33.8°F1.0°C 33.3°F0.7°C 98% Calm Calm -- 30.13 in1020.3 mb 0.06 in1.5 mm 0.00 in0.0 mm 0.47 in11.9 mm
11:20 PM 33.8°F1.0°C 33.3°F0.7°C 98% Calm Calm -- 30.13 in1020.3 mb 0.05 in1.3 mm 0.00 in0.0 mm 0.47 in11.9 mm
11:24 PM 33.8°F1.0°C 33.3°F0.7°C 98% Calm Calm -- 30.13 in1020.3 mb 0.05 in1.3 mm 0.00 in0.0 mm 0.47 in11.9 mm
11:25 PM 33.8°F1.0°C 33.3°F0.7°C 98% Calm Calm -- 30.13 in1020.3 mb 0.05 in1.3 mm 0.00 in0.0 mm 0.47 in11.9 mm
11:29 PM 33.8°F1.0°C 33.3°F0.7°C 98% Calm Calm 3.0 mph4.8 kmh 30.13 in1020.3 mb 0.05 in1.3 mm 0.00 in0.0 mm 0.47 in11.9 mm
11:30 PM 33.8°F1.0°C 33.3°F0.7°C 98% 1.0 mph N1.6 kmh N 2.0 mph3.2 kmh 30.13 in1020.3 mb 0.03 in0.8 mm 0.00 in0.0 mm 0.47 in11.9 mm
11:34 PM 33.8°F1.0°C 33.3°F0.7°C 98% Calm Calm -- 30.13 in1020.3 mb 0.03 in0.8 mm 0.00 in0.0 mm 0.47 in11.9 mm
11:35 PM 33.8°F1.0°C 33.3°F0.7°C 98% Calm Calm -- 30.13 in1020.3 mb 0.03 in0.8 mm 0.00 in0.0 mm 0.47 in11.9 mm
11:39 PM 33.8°F1.0°C 33.3°F0.7°C 98% 1.0 mph N1.6 kmh N 4.0 mph6.4 kmh 30.13 in1020.3 mb 0.03 in0.8 mm 0.00 in0.0 mm 0.47 in11.9 mm
11:40 PM 33.8°F1.0°C 33.3°F0.7°C 98% 1.0 mph N1.6 kmh N 1.0 mph1.6 kmh 30.12 in1020.0 mb 0.02 in0.5 mm 0.00 in0.0 mm 0.47 in11.9 mm
11:44 PM 33.8°F1.0°C 33.3°F0.7°C 98% 2.0 mph N3.2 kmh N 3.0 mph4.8 kmh 30.12 in1020.0 mb 0.02 in0.5 mm 0.00 in0.0 mm 0.47 in11.9 mm
11:45 PM 33.8°F1.0°C 33.3°F0.7°C 98% 2.0 mph N3.2 kmh N 3.0 mph4.8 kmh 30.13 in1020.3 mb 0.02 in0.5 mm 0.00 in0.0 mm 0.47 in11.9 mm
11:49 PM 33.8°F1.0°C 33.3°F0.7°C 98% Calm Calm 3.0 mph4.8 kmh 30.13 in1020.3 mb 0.03 in0.8 mm 0.15 in3.8 mm 0.48 in12.2 mm
11:50 PM 33.8°F1.0°C 33.3°F0.7°C 98% Calm Calm 2.0 mph3.2 kmh 30.12 in1020.0 mb 0.01 in0.3 mm 0.00 in0.0 mm 0.48 in12.2 mm
11:54 PM 33.8°F1.0°C 33.3°F0.7°C 98% 3.0 mph N4.8 kmh N 3.0 mph4.8 kmh 30.12 in1020.0 mb 0.01 in0.3 mm 0.00 in0.0 mm 0.48 in12.2 mm
11:55 PM 33.8°F1.0°C 33.3°F0.7°C 98% 2.0 mph N3.2 kmh N 5.0 mph8.0 kmh 30.12 in1020.0 mb 0.01 in0.3 mm 0.00 in0.0 mm 0.48 in12.2 mm
11:59 PM 33.8°F1.0°C 33.3°F0.7°C 98% 3.0 mph NNW4.8 kmh NNW 5.0 mph8.0 kmh 30.12 in1020.0 mb 0.01 in0.3 mm 0.00 in0.0 mm 0.48 in12.2 mm